Data Archive--June, 2003

Date Time Heat Index Current Temp Wind Chill High Temp Low Temp Humidity Dew Point Wind Speed Gust Wind Direction Rain Barometer
06/01/2003 12:00 a 59.7 59.7 59.7 59.7 59.7 98 59.1 0.0 0.0 --- 0.00 29.218
06/01/2003 12:30 a 59.7 59.7 59.7 59.7 59.6 99 59.4 0.0 0.0 --- 0.00 29.207
06/01/2003 1:00 a 59.5 59.5 59.5 59.6 59.4 98 58.9 0.0 0.0 --- 0.00 29.198
06/01/2003 1:30 a 59.3 59.3 59.3 59.4 59.2 98 58.7 0.0 1.0 --- 0.01 29.192
06/01/2003 2:00 a 59.1 59.1 59.1 59.2 58.9 98 58.5 0.0 0.0 --- 0.00 29.185
06/01/2003 2:30 a 58.7 58.7 58.7 58.9 58.6 98 58.1 0.0 1.0 NNE 0.01 29.181
06/01/2003 3:00 a 58.4 58.4 58.4 58.6 58.4 98 57.8 0.0 0.0 --- 0.02 29.165
06/01/2003 3:30 a 58.4 58.4 58.4 58.4 58.4 98 57.8 0.0 0.0 --- 0.02 29.157
06/01/2003 4:00 a 58.4 58.4 58.4 58.4 58.3 98 57.8 0.0 0.0 --- 0.01 29.153
06/01/2003 4:30 a 58.2 58.2 58.2 58.3 58.2 99 57.9 0.0 0.0 --- 0.01 29.147
06/01/2003 5:00 a 58.2 58.2 58.2 58.2 58.2 99 57.9 0.0 0.0 --- 0.01 29.139
06/01/2003 5:30 a 58.4 58.4 58.4 58.5 58.2 99 58.1 0.0 0.0 --- 0.02 29.138
06/01/2003 6:00 a 58.6 58.6 58.6 58.7 58.5 98 58.0 0.0 0.0 --- 0.02 29.139
06/01/2003 6:30 a 58.8 58.8 58.8 59.0 58.7 99 58.5 0.0 1.0 NNE 0.01 29.138
06/01/2003 7:00 a 58.8 58.8 58.8 58.9 58.7 99 58.5 0.0 1.0 NNE 0.01 29.140
06/01/2003 7:30 a 58.5 58.5 58.5 58.8 58.0 99 58.2 0.0 1.0 --- 0.00 29.149
06/01/2003 8:00 a 57.8 57.8 57.8 58.0 57.6 99 57.5 0.0 1.0 NNE 0.00 29.159
06/01/2003 8:30 a 57.7 57.7 57.7 58.1 57.5 99 57.4 0.0 2.0 E 0.01 29.169
06/01/2003 9:00 a 58.5 58.5 58.5 58.7 58.1 99 58.2 0.0 3.0 ESE 0.01 29.185
06/01/2003 9:30 a 58.7 58.7 58.7 58.8 58.5 99 58.4 0.0 2.0 SE 0.01 29.196
06/01/2003 10:00 a 58.7 58.7 58.7 58.8 58.5 99 58.4 0.0 4.0 SSE 0.00 29.208
06/01/2003 10:30 a 59.4 59.4 59.4 60.1 58.6 99 59.1 0.0 3.0 SSE 0.01 29.218
06/01/2003 11:00 a 60.4 60.4 60.4 60.8 60.0 99 60.1 0.0 3.0 SSE 0.00 29.236
06/01/2003 11:30 a 61.2 61.2 61.2 61.3 60.8 98 60.6 0.0 4.0 SSE 0.00 29.256
06/01/2003 12:00 p 62.3 62.3 62.3 63.6 61.3 99 62.0 1.0 6.0 SSE 0.00 29.270
06/01/2003 12:30 p 63.1 63.1 63.1 63.6 62.7 99 62.8 1.0 7.0 SSE 0.00 29.287
06/01/2003 1:00 p 62.2 62.2 62.2 62.8 61.7 99 61.9 1.0 7.0 SSE 0.00 29.303
06/01/2003 1:30 p 61.7 61.7 61.7 62.1 61.1 99 61.4 0.0 5.0 SSE 0.00 29.328
06/01/2003 2:00 p 60.8 60.8 60.8 61.1 60.7 99 60.5 0.0 2.0 SSE 0.00 29.339
06/01/2003 2:30 p 61.1 61.1 61.1 61.6 60.8 99 60.8 0.0 2.0 SSE 0.00 29.353
06/01/2003 3:00 p 60.9 60.9 60.9 61.6 60.5 99 60.6 1.0 6.0 SSE 0.00 29.370
06/01/2003 3:30 p 60.6 60.6 60.6 60.7 60.1 99 60.3 1.0 6.0 SSE 0.01 29.392
06/01/2003 4:00 p 59.6 59.6 59.6 60.1 59.4 99 59.3 1.0 6.0 SSE 0.00 29.411
06/01/2003 4:30 p 59.8 59.8 59.8 60.0 59.4 98 59.2 1.0 8.0 SSE 0.00 29.432
06/01/2003 5:00 p 59.0 59.0 59.0 59.4 58.7 97 58.2 1.0 9.0 SSE 0.00 29.449
06/01/2003 5:30 p 58.1 58.1 58.1 58.8 56.8 97 57.3 1.0 6.0 SSE 0.00 29.465
06/01/2003 6:00 p 56.1 56.1 56.1 56.8 55.9 97 55.3 1.0 7.0 SSE 0.00 29.477
06/01/2003 6:30 p 56.4 56.4 56.4 56.6 56.0 97 55.6 1.0 7.0 SSE 0.00 29.497
06/01/2003 7:00 p 55.9 55.9 55.9 56.5 55.4 96 54.8 2.0 7.0 SSE 0.00 29.514
06/01/2003 7:30 p 55.2 55.2 55.2 55.4 55.0 95 53.8 2.0 10.0 SSE 0.00 29.531
06/01/2003 8:00 p 54.8 54.8 54.8 55.0 54.6 95 53.4 1.0 6.0 SSE 0.00 29.546
06/01/2003 8:30 p 54.2 54.2 54.2 54.6 53.8 93 52.2 1.0 6.0 SSE 0.00 29.563
06/01/2003 9:00 p 53.5 53.5 53.5 53.8 53.1 92 51.2 1.0 5.0 SSE 0.00 29.581
06/01/2003 9:30 p 53.0 53.0 53.0 53.2 52.8 89 49.9 1.0 10.0 SSE 0.00 29.590
06/01/2003 10:00 p 52.8 52.8 52.8 53.0 52.5 83 47.8 1.0 5.0 SSE 0.00 29.610
06/01/2003 10:30 p 52.5 52.5 52.5 52.9 51.8 82 47.2 0.0 4.0 SE 0.00 29.622
06/01/2003 11:00 p 51.6 51.6 51.6 51.9 51.2 83 46.6 0.0 1.0 NE 0.00 29.627
06/01/2003 11:30 p 50.3 50.3 50.3 51.2 50.0 84 45.7 0.0 0.0 --- 0.00 29.630
06/02/2003 12:00 a 49.9 49.9 49.9 50.1 49.7 82 44.6 0.0 2.0 E 0.00 29.634
06/02/2003 12:30 a 49.6 49.6 49.6 49.9 49.2 82 44.3 0.0 1.0 E 0.00 29.636
06/02/2003 1:00 a 48.9 48.9 48.9 49.2 48.5 86 44.9 0.0 0.0 --- 0.00 29.632
06/02/2003 1:30 a 47.7 47.7 47.7 48.5 46.9 89 44.6 0.0 0.0 --- 0.00 29.637
06/02/2003 2:00 a 46.6 46.6 46.6 46.9 46.4 92 44.4 0.0 0.0 --- 0.00 29.641
06/02/2003 2:30 a 45.8 45.8 45.8 46.4 45.4 92 43.6 0.0 0.0 --- 0.00 29.647
06/02/2003 3:00 a 45.6 45.6 45.6 46.0 45.3 91 43.1 0.0 0.0 --- 0.00 29.652
06/02/2003 3:30 a 46.2 46.2 46.2 46.5 46.0 89 43.1 0.0 0.0 --- 0.00 29.659
06/02/2003 4:00 a 46.4 46.4 46.4 46.5 46.3 89 43.3 0.0 1.0 E 0.00 29.667
06/02/2003 4:30 a 46.0 46.0 46.0 46.3 45.9 89 42.9 0.0 0.0 --- 0.00 29.682
06/02/2003 5:00 a 45.6 45.6 45.6 46.0 45.1 90 42.8 0.0 1.0 --- 0.00 29.692
06/02/2003 5:30 a 44.7 44.7 44.7 45.1 44.2 91 42.2 0.0 0.0 --- 0.00 29.704
06/02/2003 6:00 a 44.0 44.0 44.0 44.2 43.9 92 41.8 0.0 0.0 --- 0.00 29.715
06/02/2003 6:30 a 44.5 44.5 44.5 45.3 44.1 91 42.0 0.0 0.0 --- 0.00 29.722
06/02/2003 7:00 a 47.0 47.0 47.0 48.9 45.3 80 41.2 0.0 1.0 ESE 0.00 29.733
06/02/2003 7:30 a 57.1 57.1 57.1 60.8 48.9 64 45.1 0.0 3.0 E 0.00 29.744
06/02/2003 8:00 a 56.3 56.3 56.3 57.7 55.2 67 45.5 0.0 4.0 SSE 0.00 29.749
06/02/2003 8:30 a 55.7 55.7 55.7 56.3 55.4 63 43.3 0.0 2.0 SSE 0.00 29.758
06/02/2003 9:00 a 57.6 57.6 57.6 58.7 56.3 59 43.4 0.0 4.0 SSE 0.00 29.762
06/02/2003 9:30 a 59.8 59.8 59.8 60.9 58.7 55 43.6 0.0 4.0 SSE 0.00 29.764
06/02/2003 10:00 a 61.6 61.6 61.6 62.6 60.8 51 43.3 1.0 4.0 SSE 0.00 29.762
06/02/2003 10:30 a 63.4 63.4 63.4 64.4 62.6 44 41.1 0.0 5.0 SSE 0.00 29.763
06/02/2003 11:00 a 65.7 65.7 65.7 67.3 64.4 40 40.7 0.0 3.0 SSE 0.00 29.775
06/02/2003 11:30 a 65.0 68.3 68.3 69.7 67.0 35 39.6 1.0 5.0 SSE 0.00 29.774
06/02/2003 12:00 p 69.0 72.1 72.1 74.5 69.7 30 39.0 1.0 5.0 SE 0.00 29.769
06/02/2003 12:30 p 77.0 79.1 79.1 81.2 74.6 27 42.3 0.0 4.0 SSE 0.00 29.771
06/02/2003 1:00 p 80.0 81.5 81.5 82.4 80.8 25 42.3 0.0 6.0 SSE 0.00 29.766
06/02/2003 1:30 p 80.0 81.8 81.8 82.4 81.5 24 41.5 0.0 4.0 SSE 0.00 29.760
06/02/2003 2:00 p 80.0 81.9 81.9 82.5 81.1 24 41.6 0.0 5.0 SSE 0.00 29.746
06/02/2003 2:30 p 80.0 81.6 81.6 82.5 80.7 24 41.3 0.0 8.0 SSE 0.00 29.742
06/02/2003 3:00 p 78.0 79.5 79.5 82.5 78.1 27 42.6 0.0 3.0 N 0.00 29.738
06/02/2003 3:30 p 77.0 79.1 79.1 80.0 77.4 26 41.3 0.0 3.0 S 0.00 29.724
06/02/2003 4:00 p 72.4 75.1 75.1 77.3 74.1 27 38.9 1.0 6.0 SSE 0.00 29.728
06/02/2003 4:30 p 71.8 73.9 73.9 74.2 73.4 29 39.7 1.0 4.0 SSE 0.00 29.721
06/02/2003 5:00 p 71.0 73.2 73.2 73.8 72.3 31 40.8 0.0 6.0 SSE 0.00 29.720
06/02/2003 5:30 p 71.0 72.9 72.9 73.8 71.7 32 41.3 0.0 4.0 SSE 0.00 29.717
06/02/2003 6:00 p 68.4 71.2 71.2 71.7 70.5 37 43.6 0.0 2.0 SE 0.00 29.719
06/02/2003 6:30 p 68.0 70.1 70.1 70.5 69.6 40 44.7 0.0 4.0 SSE 0.00 29.722
06/02/2003 7:00 p 67.0 68.8 68.8 69.6 68.0 41 44.2 0.0 1.0 SSE 0.00 29.733
06/02/2003 7:30 p 67.4 67.4 67.4 68.0 66.7 43 44.2 0.0 1.0 --- 0.00 29.743
06/02/2003 8:00 p 65.7 65.7 65.7 66.7 64.8 46 44.4 0.0 0.0 --- 0.00 29.758
06/02/2003 8:30 p 63.4 63.4 63.4 64.8 61.6 58 48.4 0.0 0.0 --- 0.00 29.767
06/02/2003 9:00 p 60.0 60.0 60.0 61.6 58.6 66 48.6 0.0 0.0 --- 0.00 29.775
06/02/2003 9:30 p 57.8 57.8 57.8 58.6 57.1 71 48.5 0.0 0.0 --- 0.00 29.793
06/02/2003 10:00 p 56.2 56.2 56.2 57.1 55.4 74 48.0 0.0 0.0 --- 0.00 29.801
06/02/2003 10:30 p 54.6 54.6 54.6 55.4 53.7 79 48.2 0.0 0.0 --- 0.00 29.811
06/02/2003 11:00 p 53.2 53.2 53.2 53.7 53.0 80 47.2 0.0 0.0 --- 0.00 29.809
06/02/2003 11:30 p 52.8 52.8 52.8 53.0 52.6 81 47.1 0.0 0.0 --- 0.00 29.805
06/03/2003 12:00 a 52.5 52.5 52.5 52.7 52.1 83 47.5 0.0 0.0 --- 0.00 29.814
06/03/2003 12:30 a 51.9 51.9 51.9 52.1 51.7 85 47.5 0.0 0.0 --- 0.00 29.824
06/03/2003 1:00 a 51.4 51.4 51.4 51.7 51.1 87 47.7 0.0 0.0 --- 0.00 29.819
06/03/2003 1:30 a 51.0 51.0 51.0 51.2 50.7 87 47.3 0.0 0.0 --- 0.00 29.819
06/03/2003 2:00 a 50.5 50.5 50.5 50.7 50.4 89 47.4 0.0 0.0 --- 0.00 29.823
06/03/2003 2:30 a 50.2 50.2 50.2 50.4 50.0 89 47.1 0.0 0.0 --- 0.00 29.827
06/03/2003 3:00 a 49.8 49.8 49.8 50.0 49.7 88 46.4 0.0 0.0 --- 0.00 29.839
06/03/2003 3:30 a 49.7 49.7 49.7 49.8 49.5 90 46.9 0.0 0.0 --- 0.00 29.838
06/03/2003 4:00 a 49.3 49.3 49.3 49.6 49.0 90 46.5 0.0 0.0 --- 0.00 29.838
06/03/2003 4:30 a 48.8 48.8 48.8 49.0 48.5 91 46.3 0.0 0.0 --- 0.00 29.838
06/03/2003 5:00 a 48.3 48.3 48.3 48.5 48.2 91 45.8 0.0 0.0 --- 0.00 29.847
06/03/2003 5:30 a 48.3 48.3 48.3 48.4 48.2 92 46.1 0.0 0.0 --- 0.00 29.858
06/03/2003 6:00 a 48.6 48.6 48.6 48.9 48.4 92 46.4 0.0 0.0 --- 0.00 29.869
06/03/2003 6:30 a 49.4 49.4 49.4 50.1 48.9 91 46.9 0.0 0.0 --- 0.00 29.866
06/03/2003 7:00 a 51.2 51.2 51.2 52.3 50.1 89 48.1 0.0 0.0 --- 0.00 29.877
06/03/2003 7:30 a 54.2 54.2 54.2 56.1 52.4 82 48.8 0.0 0.0 --- 0.00 29.883
06/03/2003 8:00 a 58.9 58.9 58.9 60.5 56.1 67 48.0 0.0 0.0 --- 0.00 29.875
06/03/2003 8:30 a 60.7 60.7 60.7 61.5 60.3 65 48.9 0.0 0.0 --- 0.00 29.874
06/03/2003 9:00 a 62.8 62.8 62.8 63.9 61.5 63 50.0 0.0 0.0 --- 0.00 29.877
06/03/2003 9:30 a 65.2 65.2 65.2 66.5 63.7 54 48.2 0.0 1.0 SSE 0.00 29.874
06/03/2003 10:00 a 67.8 67.8 67.8 68.5 66.5 50 48.5 0.0 2.0 SSE 0.00 29.872
06/03/2003 10:30 a 67.9 67.9 67.9 68.4 67.5 55 51.2 0.0 0.0 --- 0.00 29.879
06/03/2003 11:00 a 67.0 68.5 68.5 69.1 67.7 50 49.1 0.0 0.0 --- 0.00 29.879
06/03/2003 11:30 a 68.0 70.2 70.2 70.7 69.1 49 50.2 0.0 0.0 --- 0.00 29.880
06/03/2003 12:00 p 68.0 68.5 68.5 69.9 67.7 55 51.7 0.0 0.0 --- 0.00 29.884
06/03/2003 12:30 p 67.3 67.3 67.3 67.7 66.9 57 51.6 0.0 1.0 --- 0.00 29.888
06/03/2003 1:00 p 66.8 66.8 66.8 66.9 66.7 53 49.1 0.0 1.0 SE 0.00 29.889
06/03/2003 1:30 p 66.9 66.9 66.9 67.1 66.7 54 49.7 0.0 1.0 SE 0.00 29.876
06/03/2003 2:00 p 67.3 67.3 67.3 67.5 67.0 53 49.6 0.0 2.0 ENE 0.00 29.869
06/03/2003 2:30 p 65.2 65.2 65.2 67.0 63.4 66 53.6 0.0 2.0 SSE 0.00 29.868
06/03/2003 3:00 p 61.3 61.3 61.3 63.4 60.1 85 56.8 0.0 0.0 --- 0.00 29.869
06/03/2003 3:30 p 59.4 59.4 59.4 60.1 58.8 94 57.7 0.0 0.0 --- 0.00 29.876
06/03/2003 4:00 p 58.9 58.9 58.9 59.0 58.6 94 57.2 0.0 0.0 --- 0.00 29.880
06/03/2003 4:30 p 57.7 57.7 57.7 58.6 56.8 95 56.3 0.0 0.0 --- 0.00 29.885
06/03/2003 5:00 p 56.3 56.3 56.3 56.8 55.9 96 55.2 0.0 0.0 --- 0.01 29.866
06/03/2003 5:30 p 56.1 56.1 56.1 56.5 55.8 96 55.0 0.0 0.0 --- 0.01 29.864
06/03/2003 6:00 p 56.6 56.6 56.6 56.7 56.5 97 55.8 0.0 0.0 --- 0.00 29.853
06/03/2003 6:30 p 56.4 56.4 56.4 56.7 56.1 97 55.6 0.0 0.0 --- 0.00 29.844
06/03/2003 7:00 p 56.2 56.2 56.2 56.3 56.1 97 55.4 0.0 0.0 --- 0.00 29.847
06/03/2003 7:30 p 56.1 56.1 56.1 56.1 56.0 97 55.3 0.0 0.0 --- 0.00 29.866
06/03/2003 8:00 p 56.1 56.1 56.1 56.2 56.0 97 55.3 0.0 0.0 --- 0.00 29.865
06/03/2003 8:30 p 56.1 56.1 56.1 56.2 55.9 97 55.3 0.0 0.0 --- 0.01 29.859
06/03/2003 9:00 p 55.6 55.6 55.6 55.9 55.4 97 54.8 0.0 0.0 --- 0.01 29.854
06/03/2003 9:30 p 55.4 55.4 55.4 55.5 55.4 97 54.6 0.0 0.0 --- 0.00 29.859
06/03/2003 10:00 p 55.5 55.5 55.5 55.6 55.4 97 54.7 0.0 0.0 --- 0.00 29.873
06/03/2003 10:30 p 55.6 55.6 55.6 55.7 55.6 97 54.8 0.0 0.0 --- 0.01 29.876
06/03/2003 11:00 p 55.1 55.1 55.1 55.6 54.4 97 54.3 0.0 0.0 --- 0.00 29.867
06/03/2003 11:30 p 53.9 53.9 53.9 54.4 53.6 97 53.1 0.0 0.0 --- 0.02 29.858
06/04/2003 12:00 a 53.3 53.3 53.3 53.6 52.9 97 52.5 0.0 0.0 --- 0.01 29.848
06/04/2003 12:30 a 52.6 52.6 52.6 52.9 52.3 97 51.8 0.0 0.0 --- 0.03 29.833
06/04/2003 1:00 a 52.1 52.1 52.1 52.3 51.8 97 51.3 0.0 1.0 W 0.02 29.813
06/04/2003 1:30 a 51.7 51.7 51.7 51.8 51.5 98 51.2 0.0 1.0 N 0.01 29.815
06/04/2003 2:00 a 51.2 51.2 51.2 51.5 50.9 97 50.4 0.0 1.0 N 0.10 29.816
06/04/2003 2:30 a 50.8 50.8 50.8 51.0 50.7 98 50.3 0.0 0.0 --- 0.06 29.822
06/04/2003 3:00 a 50.7 50.7 50.7 50.8 50.7 98 50.2 0.0 0.0 --- 0.01 29.824
06/04/2003 3:30 a 50.7 50.7 50.7 50.7 50.6 98 50.2 0.0 1.0 --- 0.01 29.822
06/04/2003 4:00 a 50.7 50.7 50.7 50.8 50.6 98 50.2 0.0 0.0 --- 0.01 29.816
06/04/2003 4:30 a 50.7 50.7 50.7 50.8 50.6 98 50.2 0.0 1.0 N 0.00 29.807
06/04/2003 5:00 a 50.7 50.7 50.7 50.8 50.6 98 50.2 0.0 1.0 N 0.02 29.810
06/04/2003 5:30 a 50.8 50.8 50.8 50.8 50.7 98 50.3 0.0 2.0 N 0.02 29.797
06/04/2003 6:00 a 50.8 50.8 50.8 50.9 50.7 98 50.3 0.0 2.0 N 0.04 29.795
06/04/2003 6:30 a 50.9 50.9 50.9 51.0 50.8 98 50.4 0.0 3.0 SSE 0.03 29.796
06/04/2003 7:00 a 51.0 51.0 51.0 51.2 50.9 98 50.5 0.0 2.0 S 0.10 29.799
06/04/2003 7:30 a 51.3 51.3 51.3 51.5 51.1 98 50.8 0.0 0.0 --- 0.08 29.802
06/04/2003 8:00 a 51.7 51.7 51.7 51.8 51.5 98 51.2 0.0 2.0 SSE 0.03 29.801
06/04/2003 8:30 a 52.0 52.0 52.0 52.1 51.8 98 51.5 0.0 0.0 --- 0.02 29.793
06/04/2003 9:00 a 52.1 52.1 52.1 52.3 52.1 98 51.6 0.0 2.0 SSE 0.06 29.782
06/04/2003 9:30 a 52.3 52.3 52.3 52.4 52.2 99 52.0 0.0 2.0 SE 0.04 29.779
06/04/2003 10:00 a 52.6 52.6 52.6 52.8 52.4 99 52.3 0.0 1.0 SE 0.05 29.771
06/04/2003 10:30 a 53.3 53.3 53.3 53.7 52.8 98 52.8 0.0 2.0 SE 0.02 29.764
06/04/2003 11:00 a 53.9 53.9 53.9 54.2 53.7 99 53.6 0.0 2.0 SE 0.01 29.771
06/04/2003 11:30 a 54.4 54.4 54.4 54.5 54.2 99 54.1 0.0 1.0 ESE 0.00 29.770
06/04/2003 12:00 p 54.6 54.6 54.6 54.8 54.5 99 54.3 0.0 1.0 ESE 0.00 29.764
06/04/2003 12:30 p 54.8 54.8 54.8 55.0 54.7 99 54.5 0.0 3.0 SE 0.00 29.761
06/04/2003 1:00 p 55.8 55.8 55.8 56.1 55.0 99 55.5 0.0 2.0 ESE 0.00 29.762
06/04/2003 1:30 p 56.0 56.0 56.0 56.2 55.8 99 55.7 0.0 0.0 --- 0.00 29.753
06/04/2003 2:00 p 56.1 56.1 56.1 56.3 55.9 99 55.8 0.0 1.0 SSE 0.00 29.744
06/04/2003 2:30 p 56.3 56.3 56.3 56.4 56.2 99 56.0 0.0 2.0 SE 0.00 29.735
06/04/2003 3:00 p 56.3 56.3 56.3 56.4 56.2 99 56.0 0.0 2.0 N 0.00 29.723
06/04/2003 3:30 p 56.1 56.1 56.1 56.3 56.1 99 55.8 0.0 2.0 E 0.00 29.723
06/04/2003 4:00 p 56.2 56.2 56.2 56.3 56.1 99 55.9 0.0 2.0 E 0.00 29.716
06/04/2003 4:30 p 56.2 56.2 56.2 56.3 56.2 99 55.9 0.0 0.0 --- 0.00 29.712
06/04/2003 5:00 p 56.2 56.2 56.2 56.2 56.1 99 55.9 0.0 2.0 E 0.00 29.705
06/04/2003 5:30 p 56.1 56.1 56.1 56.2 56.0 99 55.8 0.0 1.0 E 0.00 29.696
06/04/2003 6:00 p 55.9 55.9 55.9 56.0 55.8 99 55.6 0.0 1.0 --- 0.01 29.691
06/04/2003 6:30 p 55.8 55.8 55.8 55.9 55.8 100 55.8 0.0 3.0 E 0.04 29.689
06/04/2003 7:00 p 55.9 55.9 55.9 56.1 55.8 100 55.9 0.0 1.0 SSE 0.03 29.681
06/04/2003 7:30 p -- 56.1 56.1 56.2 56.0 -- -- 0.0 2.0 ESE 0.01 29.690
06/04/2003 8:00 p 56.0 56.0 56.0 56.1 55.9 100 56.0 0.0 1.0 ESE 0.10 29.699
06/04/2003 8:30 p 55.9 55.9 55.9 56.0 55.8 100 55.9 0.0 0.0 --- 0.21 29.681
06/04/2003 9:00 p 55.9 55.9 55.9 55.9 55.8 100 55.9 0.0 1.0 ESE 0.02 29.685
06/04/2003 9:30 p 56.0 56.0 56.0 56.1 55.9 100 56.0 0.0 1.0 --- 0.01 29.688
06/04/2003 10:00 p 56.2 56.2 56.2 56.2 56.0 100 56.2 0.0 1.0 --- 0.00 29.695
06/04/2003 10:30 p 56.2 56.2 56.2 56.3 56.2 100 56.2 0.0 0.0 --- 0.01 29.703
06/04/2003 11:00 p 56.3 56.3 56.3 56.4 56.3 100 56.3 0.0 0.0 --- 0.00 29.687
06/04/2003 11:30 p 56.4 56.4 56.4 56.5 56.4 100 56.4 0.0 0.0 --- 0.00 29.682
06/05/2003 12:00 a 56.5 56.5 56.5 56.5 56.5 100 56.5 0.0 0.0 --- 0.00 29.686
06/05/2003 12:30 a 56.6 56.6 56.6 56.6 56.5 100 56.6 0.0 1.0 --- 0.00 29.676
06/05/2003 1:00 a 56.6 56.6 56.6 56.6 56.5 100 56.6 0.0 0.0 --- 0.00 29.666
06/05/2003 1:30 a 56.6 56.6 56.6 56.6 56.5 100 56.6 0.0 0.0 --- 0.00 29.658
06/05/2003 2:00 a 56.6 56.6 56.6 56.6 56.5 100 56.6 0.0 0.0 --- 0.00 29.638
06/05/2003 2:30 a 56.4 56.4 56.4 56.5 56.3 100 56.4 0.0 0.0 --- 0.00 29.648
06/05/2003 3:00 a 56.4 56.4 56.4 56.5 56.4 100 56.4 0.0 0.0 --- 0.00 29.647
06/05/2003 3:30 a 56.5 56.5 56.5 56.6 56.5 100 56.5 0.0 0.0 --- 0.00 29.636
06/05/2003 4:00 a 56.6 56.6 56.6 56.7 56.5 100 56.6 0.0 0.0 --- 0.00 29.647
06/05/2003 4:30 a 56.6 56.6 56.6 56.7 56.5 100 56.6 0.0 0.0 --- 0.00 29.641
06/05/2003 5:00 a 56.7 56.7 56.7 56.7 56.6 100 56.7 0.0 0.0 --- 0.00 29.644
06/05/2003 5:30 a 56.7 56.7 56.7 56.7 56.6 100 56.7 0.0 0.0 --- 0.00 29.641
06/05/2003 6:00 a 56.9 56.9 56.9 57.1 56.7 100 56.9 0.0 0.0 --- 0.00 29.634
06/05/2003 6:30 a 57.2 57.2 57.2 57.4 57.1 100 57.2 0.0 0.0 --- 0.00 29.639
06/05/2003 7:00 a 57.4 57.4 57.4 57.4 57.3 100 57.4 0.0 0.0 --- 0.00 29.648
06/05/2003 7:30 a 57.5 57.5 57.5 57.9 57.3 100 57.5 0.0 0.0 --- 0.01 29.654
06/05/2003 8:00 a 58.2 58.2 58.2 58.3 57.9 100 58.2 0.0 0.0 --- 0.00 29.653
06/05/2003 8:30 a 58.4 58.4 58.4 58.6 58.2 100 58.4 0.0 0.0 --- 0.00 29.652
06/05/2003 9:00 a 58.7 58.7 58.7 58.8 58.6 100 58.7 0.0 0.0 --- 0.00 29.648
06/05/2003 9:30 a 59.1 59.1 59.1 59.5 58.7 100 59.1 0.0 0.0 --- 0.00 29.650
06/05/2003 10:00 a 59.8 59.8 59.8 60.2 59.2 100 59.8 0.0 0.0 --- 0.00 29.655
06/05/2003 10:30 a 60.1 60.1 60.1 60.4 59.9 100 60.1 0.0 0.0 --- 0.00 29.653
06/05/2003 11:00 a 60.3 60.3 60.3 61.6 59.8 100 60.3 0.0 0.0 --- 0.00 29.643
06/05/2003 11:30 a 63.3 63.3 63.3 64.2 61.6 100 63.3 0.0 1.0 ESE 0.00 29.635
06/05/2003 12:00 p 63.6 63.6 63.6 64.6 62.9 100 63.6 0.0 2.0 ESE 0.00 29.631
06/05/2003 12:30 p 67.6 67.6 67.6 69.8 64.3 100 67.6 0.0 2.0 ESE 0.00 29.629
06/05/2003 1:00 p 67.4 67.4 67.4 68.1 66.9 100 67.4 0.0 3.0 SSW 0.00 29.630
06/05/2003 1:30 p 72.0 69.1 69.1 73.2 67.6 100 69.1 0.0 2.0 SSE 0.00 29.627
06/05/2003 2:00 p 79.0 74.9 74.9 76.5 73.2 100 74.9 0.0 2.0 SSE 0.00 29.614
06/05/2003 2:30 p 76.0 72.4 72.4 75.4 69.1 100 72.4 0.0 1.0 E 0.00 29.609
06/05/2003 3:00 p 80.0 76.0 76.0 80.2 69.1 99 75.7 0.0 2.0 SE 0.00 29.609
06/05/2003 3:30 p 84.0 79.7 79.7 80.7 76.6 75 71.1 0.0 4.0 SSE 0.00 29.610
06/05/2003 4:00 p 73.5 73.2 73.2 76.5 71.1 65 60.7 0.0 3.0 SSE 0.00 29.609
06/05/2003 4:30 p 75.4 74.6 74.6 75.2 73.9 62 60.7 0.0 2.0 S 0.00 29.606
06/05/2003 5:00 p 75.0 74.6 74.6 75.1 73.3 59 59.3 0.0 3.0 S 0.00 29.614
06/05/2003 5:30 p 72.0 72.3 72.3 73.2 70.9 60 57.7 0.0 3.0 SSW 0.00 29.619
06/05/2003 6:00 p 70.0 70.1 70.1 70.9 69.7 62 56.5 0.0 4.0 S 0.00 29.626
06/05/2003 6:30 p 70.0 69.7 69.7 70.0 69.3 60 55.2 0.0 3.0 S 0.00 29.629
06/05/2003 7:00 p 68.8 68.5 68.5 69.3 68.0 59 53.6 0.0 3.0 SSE 0.00 29.640
06/05/2003 7:30 p 67.2 67.2 67.2 68.1 66.4 63 54.2 0.0 3.0 S 0.00 29.649
06/05/2003 8:00 p 65.9 65.9 65.9 66.4 65.4 60 51.6 0.0 3.0 S 0.00 29.651
06/05/2003 8:30 p 64.4 64.4 64.4 65.4 63.4 64 52.0 0.0 3.0 SSE 0.00 29.660
06/05/2003 9:00 p 63.3 63.3 63.3 63.5 62.9 65 51.3 0.0 1.0 S 0.00 29.673
06/05/2003 9:30 p 62.3 62.3 62.3 62.9 61.6 67 51.2 0.0 3.0 SSE 0.00 29.682
06/05/2003 10:00 p 60.7 60.7 60.7 61.7 59.2 75 52.7 0.0 1.0 --- 0.00 29.698
06/05/2003 10:30 p 58.9 58.9 58.9 59.2 58.8 75 51.0 0.0 1.0 SSE 0.00 29.701
06/05/2003 11:00 p 58.9 58.9 58.9 59.0 58.5 75 51.0 0.0 0.0 --- 0.00 29.703
06/05/2003 11:30 p 57.5 57.5 57.5 58.5 56.5 81 51.7 0.0 0.0 --- 0.00 29.710
06/06/2003 12:00 a 55.8 55.8 55.8 56.5 55.4 84 51.0 0.0 0.0 --- 0.00 29.710
06/06/2003 12:30 a 54.9 54.9 54.9 55.3 54.4 86 50.8 0.0 0.0 --- 0.00 29.709
06/06/2003 1:00 a 54.3 54.3 54.3 54.5 54.0 87 50.5 0.0 0.0 --- 0.00 29.709
06/06/2003 1:30 a 54.3 54.3 54.3 54.6 54.0 86 50.2 0.0 0.0 --- 0.00 29.716
06/06/2003 2:00 a 53.8 53.8 53.8 54.1 53.6 89 50.6 0.0 0.0 --- 0.00 29.718
06/06/2003 2:30 a 53.9 53.9 53.9 54.1 53.8 88 50.4 0.0 0.0 --- 0.00 29.728
06/06/2003 3:00 a 53.7 53.7 53.7 53.9 53.5 89 50.5 0.0 0.0 --- 0.00 29.736
06/06/2003 3:30 a 54.0 54.0 54.0 54.6 53.6 86 49.9 0.0 0.0 --- 0.00 29.736
06/06/2003 4:00 a 55.1 55.1 55.1 55.5 54.6 84 50.4 0.0 0.0 --- 0.00 29.745
06/06/2003 4:30 a 55.5 55.5 55.5 55.6 55.4 84 50.8 0.0 0.0 --- 0.00 29.750
06/06/2003 5:00 a 54.8 54.8 54.8 55.5 54.0 87 51.0 0.0 0.0 --- 0.00 29.759
06/06/2003 5:30 a 53.3 53.3 53.3 54.0 52.7 90 50.4 0.0 0.0 --- 0.00 29.760
06/06/2003 6:00 a 52.5 52.5 52.5 52.7 52.3 91 50.0 0.0 0.0 --- 0.00 29.779
06/06/2003 6:30 a 53.0 53.0 53.0 53.8 52.5 90 50.2 0.0 0.0 --- 0.00 29.783
06/06/2003 7:00 a 54.7 54.7 54.7 55.9 53.8 86 50.6 0.0 0.0 --- 0.00 29.789
06/06/2003 7:30 a 64.2 64.2 64.2 68.8 55.9 67 53.0 0.0 0.0 --- 0.00 29.800
06/06/2003 8:00 a 64.6 64.6 64.6 66.8 63.0 68 53.8 0.0 2.0 --- 0.00 29.815
06/06/2003 8:30 a 63.7 63.7 63.7 64.5 63.3 68 53.0 0.0 3.0 SSE 0.00 29.821
06/06/2003 9:00 a 64.5 64.5 64.5 65.2 63.7 65 52.5 0.0 3.0 SSE 0.00 29.825
06/06/2003 9:30 a 66.0 66.0 66.0 67.5 65.2 62 52.6 0.0 3.0 SSE 0.00 29.828
06/06/2003 10:00 a 69.0 68.6 68.6 70.4 67.5 62 55.1 0.0 3.0 SSE 0.00 29.827
06/06/2003 10:30 a 69.2 69.7 69.7 70.0 69.5 56 53.3 0.0 3.0 SSE 0.00 29.826
06/06/2003 11:00 a 69.8 71.1 71.1 72.5 70.0 54 53.6 0.0 6.0 SSE 0.00 29.830
06/06/2003 11:30 a 73.2 73.8 73.8 76.9 71.7 46 51.7 0.0 3.0 SSE 0.00 29.835
06/06/2003 12:00 p 78.8 78.7 78.7 80.3 76.8 39 51.7 0.0 4.0 SSE 0.00 29.829
06/06/2003 12:30 p 84.2 86.0 86.0 88.1 80.4 31 51.9 0.0 3.0 SSE 0.00 29.820
06/06/2003 1:00 p 85.6 87.3 87.3 88.8 84.6 33 54.7 0.0 4.0 SSE 0.00 29.824
06/06/2003 1:30 p 84.6 85.7 85.7 87.7 83.2 33 53.3 0.0 4.0 SSE 0.00 29.820
06/06/2003 2:00 p 82.0 83.4 83.4 85.4 80.1 35 52.9 0.0 5.0 SE 0.00 29.819
06/06/2003 2:30 p 83.4 85.0 85.0 87.6 82.3 32 51.9 0.0 3.0 SE 0.00 29.815
06/06/2003 3:00 p 86.2 88.0 88.0 88.6 87.3 31 53.6 0.0 3.0 SE 0.00 29.809
06/06/2003 3:30 p 84.6 86.3 86.3 87.3 84.1 33 53.8 0.0 2.0 SW 0.00 29.806
06/06/2003 4:00 p 81.0 80.8 80.8 84.0 78.9 40 54.3 0.0 3.0 S 0.00 29.804
06/06/2003 4:30 p 79.0 78.7 78.7 79.1 78.4 41 53.0 0.0 2.0 E 0.00 29.808
06/06/2003 5:00 p 77.6 78.2 78.2 78.5 78.0 46 55.7 0.0 3.0 SE 0.00 29.807
06/06/2003 5:30 p 77.8 77.5 77.5 78.5 76.1 48 56.3 0.0 2.0 S 0.00 29.811
06/06/2003 6:00 p 75.0 75.1 75.1 76.1 74.3 50 55.2 0.0 3.0 SE 0.00 29.811
06/06/2003 6:30 p 74.0 73.7 73.7 74.3 73.1 52 55.0 0.0 1.0 --- 0.00 29.808
06/06/2003 7:00 p 71.7 72.4 72.4 73.2 71.6 57 56.3 0.0 0.0 --- 0.00 29.805
06/06/2003 7:30 p 71.0 70.8 70.8 71.6 70.0 60 56.2 0.0 0.0 --- 0.00 29.820
06/06/2003 8:00 p 69.0 69.1 69.1 70.0 68.2 63 56.0 0.0 0.0 --- 0.00 29.829
06/06/2003 8:30 p 67.3 67.3 67.3 68.2 66.8 68 56.4 0.0 0.0 --- 0.00 29.842
06/06/2003 9:00 p 66.1 66.1 66.1 66.8 65.5 71 56.4 0.0 0.0 --- 0.00 29.854
06/06/2003 9:30 p 64.9 64.9 64.9 65.5 64.3 74 56.4 0.0 0.0 --- 0.00 29.844
06/06/2003 10:00 p 63.6 63.6 63.6 64.3 63.1 77 56.3 0.0 0.0 --- 0.00 29.869
06/06/2003 10:30 p 62.7 62.7 62.7 63.1 62.2 78 55.8 0.0 0.0 --- 0.00 29.871
06/06/2003 11:00 p 61.6 61.6 61.6 62.2 61.2 81 55.7 0.0 0.0 --- 0.00 29.874
06/06/2003 11:30 p 60.7 60.7 60.7 61.2 60.4 83 55.5 0.0 0.0 --- 0.00 29.875
06/07/2003 12:00 a 60.0 60.0 60.0 60.4 59.5 85 55.5 0.0 0.0 --- 0.00 29.873
06/07/2003 12:30 a 59.0 59.0 59.0 59.5 58.4 87 55.1 0.0 0.0 --- 0.00 29.871
06/07/2003 1:00 a 57.9 57.9 57.9 58.4 57.5 90 55.0 0.0 0.0 --- 0.00 29.871
06/07/2003 1:30 a 57.2 57.2 57.2 57.5 56.9 91 54.6 0.0 0.0 --- 0.00 29.858
06/07/2003 2:00 a 56.6 56.6 56.6 56.9 56.4 92 54.3 0.0 0.0 --- 0.00 29.866
06/07/2003 2:30 a 56.3 56.3 56.3 56.5 56.2 92 54.0 0.0 0.0 --- 0.00 29.872
06/07/2003 3:00 a 56.8 56.8 56.8 57.0 56.5 90 53.9 0.0 0.0 --- 0.00 29.864
06/07/2003 3:30 a 56.7 56.7 56.7 57.0 56.4 91 54.1 0.0 0.0 --- 0.00 29.861
06/07/2003 4:00 a 55.9 55.9 55.9 56.4 55.3 92 53.6 0.0 0.0 --- 0.00 29.850
06/07/2003 4:30 a 55.1 55.1 55.1 55.3 54.9 93 53.1 0.0 0.0 --- 0.00 29.869
06/07/2003 5:00 a 54.7 54.7 54.7 54.9 54.5 94 53.0 0.0 0.0 --- 0.00 29.864
06/07/2003 5:30 a 54.9 54.9 54.9 55.3 54.6 94 53.2 0.0 0.0 --- 0.00 29.866
06/07/2003 6:00 a 55.7 55.7 55.7 56.2 55.3 93 53.7 0.0 0.0 --- 0.00 29.850
06/07/2003 6:30 a 56.6 56.6 56.6 57.1 56.2 92 54.3 0.0 0.0 --- 0.00 29.859
06/07/2003 7:00 a 57.7 57.7 57.7 58.5 57.1 90 54.8 0.0 0.0 --- 0.00 29.863
06/07/2003 7:30 a 58.9 58.9 58.9 59.4 58.5 89 55.7 0.0 0.0 --- 0.00 29.846
06/07/2003 8:00 a 60.5 60.5 60.5 61.4 59.4 84 55.6 0.0 0.0 --- 0.00 29.840
06/07/2003 8:30 a 61.1 61.1 61.1 61.4 60.3 92 58.8 0.0 0.0 --- 0.00 29.842
06/07/2003 9:00 a 60.1 60.1 60.1 60.4 59.9 96 59.0 0.0 0.0 --- 0.00 29.853
06/07/2003 9:30 a 60.5 60.5 60.5 60.7 60.4 96 59.4 0.0 0.0 --- 0.00 29.834
06/07/2003 10:00 a 61.1 61.1 61.1 61.3 60.6 96 60.0 0.0 0.0 --- 0.00 29.830
06/07/2003 10:30 a 61.0 61.0 61.0 61.2 60.8 96 59.9 0.0 1.0 --- 0.01 29.823
06/07/2003 11:00 a 60.7 60.7 60.7 61.0 60.5 97 59.8 0.0 1.0 --- 0.00 29.806
06/07/2003 11:30 a 61.0 61.0 61.0 61.2 60.4 96 59.9 0.0 2.0 SE 0.00 29.811
06/07/2003 12:00 p 60.4 60.4 60.4 60.6 60.1 97 59.5 0.0 1.0 --- 0.01 29.791
06/07/2003 12:30 p 60.3 60.3 60.3 60.7 60.0 97 59.4 0.0 1.0 SE 0.02 29.792
06/07/2003 1:00 p 59.8 59.8 59.8 60.1 59.4 97 59.0 0.0 3.0 SSE 0.05 29.776
06/07/2003 1:30 p 59.6 59.6 59.6 60.1 59.1 97 58.8 0.0 1.0 SSE 0.05 29.762
06/07/2003 2:00 p 58.8 58.8 58.8 59.1 58.5 98 58.2 0.0 1.0 SSE 0.06 29.747
06/07/2003 2:30 p 58.4 58.4 58.4 58.6 58.2 97 57.6 0.0 0.0 --- 0.03 29.725
06/07/2003 3:00 p 58.2 58.2 58.2 58.3 58.1 97 57.4 0.0 1.0 SSE 0.02 29.716
06/07/2003 3:30 p 57.9 57.9 57.9 58.2 57.6 97 57.1 0.0 2.0 SSE 0.03 29.718
06/07/2003 4:00 p 57.7 57.7 57.7 57.9 57.5 98 57.1 0.0 1.0 --- 0.04 29.703
06/07/2003 4:30 p 57.7 57.7 57.7 57.8 57.6 98 57.1 0.0 1.0 SSE 0.01 29.689
06/07/2003 5:00 p 57.7 57.7 57.7 57.8 57.7 98 57.1 0.0 2.0 NE 0.01 29.673
06/07/2003 5:30 p 57.9 57.9 57.9 58.0 57.8 97 57.1 0.0 1.0 NNE 0.02 29.673
06/07/2003 6:00 p 57.8 57.8 57.8 58.0 57.8 98 57.2 0.0 2.0 ENE 0.00 29.674
06/07/2003 6:30 p 58.1 58.1 58.1 58.1 58.0 98 57.5 0.0 0.0 --- 0.00 29.681
06/07/2003 7:00 p 58.0 58.0 58.0 58.1 57.9 98 57.4 0.0 1.0 --- 0.01 29.684
06/07/2003 7:30 p 57.9 57.9 57.9 58.0 57.8 98 57.3 0.0 3.0 ENE 0.01 29.671
06/07/2003 8:00 p 57.8 57.8 57.8 57.9 57.7 98 57.2 0.0 3.0 E 0.00 29.685
06/07/2003 8:30 p 57.6 57.6 57.6 57.7 57.4 98 57.0 0.0 0.0 --- 0.00 29.667
06/07/2003 9:00 p 57.4 57.4 57.4 57.5 57.4 98 56.8 0.0 1.0 SSE 0.00 29.661
06/07/2003 9:30 p 57.4 57.4 57.4 57.4 57.4 98 56.8 0.0 3.0 SSE 0.00 29.669
06/07/2003 10:00 p 57.4 57.4 57.4 57.5 57.4 98 56.8 0.0 1.0 E 0.00 29.656
06/07/2003 10:30 p 57.5 57.5 57.5 57.7 57.4 98 56.9 0.0 2.0 E 0.00 29.679
06/07/2003 11:00 p 57.6 57.6 57.6 57.7 57.5 98 57.0 0.0 1.0 E 0.00 29.677
06/07/2003 11:30 p 57.6 57.6 57.6 57.7 57.6 98 57.0 0.0 0.0 --- 0.00 29.683
06/08/2003 12:00 a 57.7 57.7 57.7 57.7 57.6 98 57.1 0.0 0.0 --- 0.00 29.673
06/08/2003 12:30 a 57.6 57.6 57.6 57.6 57.5 98 57.0 0.0 2.0 E 0.00 29.671
06/08/2003 1:00 a 57.6 57.6 57.6 57.7 57.6 98 57.0 0.0 1.0 --- 0.00 29.673
06/08/2003 1:30 a 57.7 57.7 57.7 57.7 57.7 98 57.1 0.0 0.0 --- 0.00 29.674
06/08/2003 2:00 a 57.7 57.7 57.7 57.8 57.7 98 57.1 0.0 0.0 --- 0.00 29.665
06/08/2003 2:30 a 57.8 57.8 57.8 57.9 57.8 98 57.2 0.0 0.0 --- 0.00 29.668
06/08/2003 3:00 a 57.9 57.9 57.9 58.0 57.9 98 57.3 0.0 0.0 --- 0.00 29.665
06/08/2003 3:30 a 58.0 58.0 58.0 58.1 58.0 98 57.4 0.0 0.0 --- 0.00 29.659
06/08/2003 4:00 a 58.1 58.1 58.1 58.2 58.1 98 57.5 0.0 0.0 --- 0.00 29.665
06/08/2003 4:30 a 58.2 58.2 58.2 58.3 58.2 98 57.6 0.0 0.0 --- 0.00 29.668
06/08/2003 5:00 a 58.3 58.3 58.3 58.4 58.3 98 57.7 0.0 0.0 --- 0.00 29.678
06/08/2003 5:30 a 58.5 58.5 58.5 58.6 58.4 98 57.9 0.0 0.0 --- 0.00 29.690
06/08/2003 6:00 a 58.6 58.6 58.6 58.8 58.6 98 58.0 0.0 0.0 --- 0.00 29.702
06/08/2003 6:30 a 58.9 58.9 58.9 59.2 58.7 98 58.3 0.0 0.0 --- 0.00 29.710
06/08/2003 7:00 a 59.4 59.4 59.4 59.7 59.1 98 58.8 0.0 0.0 --- 0.00 29.723
06/08/2003 7:30 a 59.9 59.9 59.9 60.2 59.7 98 59.3 0.0 0.0 --- 0.00 29.730
06/08/2003 8:00 a 60.4 60.4 60.4 60.6 60.2 98 59.8 0.0 0.0 --- 0.00 29.732
06/08/2003 8:30 a 61.0 61.0 61.0 61.4 60.5 98 60.4 0.0 0.0 --- 0.00 29.734
06/08/2003 9:00 a 62.1 62.1 62.1 62.4 61.4 98 61.5 0.0 1.0 E 0.00 29.738
06/08/2003 9:30 a 62.5 62.5 62.5 62.9 62.1 98 61.9 0.0 2.0 E 0.00 29.736
06/08/2003 10:00 a 63.2 63.2 63.2 63.6 62.9 98 62.6 0.0 0.0 --- 0.00 29.736
06/08/2003 10:30 a 63.3 63.3 63.3 63.6 63.1 97 62.4 0.0 0.0 --- 0.00 29.742
06/08/2003 11:00 a 63.9 63.9 63.9 64.2 63.6 96 62.7 0.0 1.0 --- 0.00 29.735
06/08/2003 11:30 a 64.7 64.7 64.7 65.0 64.2 96 63.5 0.0 2.0 E 0.00 29.747
06/08/2003 12:00 p 65.6 65.6 65.6 66.3 64.7 94 63.8 0.0 1.0 ESE 0.00 29.742
06/08/2003 12:30 p 66.0 66.0 66.0 66.8 65.2 93 63.9 0.0 3.0 N 0.00 29.744
06/08/2003 1:00 p 66.0 66.0 66.0 66.6 65.8 93 63.9 0.0 0.0 --- 0.00 29.747
06/08/2003 1:30 p 66.0 66.0 66.0 66.5 65.7 91 63.3 0.0 2.0 N 0.00 29.739
06/08/2003 2:00 p 70.0 68.2 68.2 69.7 66.5 86 63.9 0.0 1.0 N 0.00 29.735
06/08/2003 2:30 p 72.4 71.2 71.2 72.3 69.7 77 63.6 0.0 1.0 NNE 0.00 29.736
06/08/2003 3:00 p 71.4 70.6 70.6 71.0 70.4 72 61.1 0.0 2.0 ESE 0.00 29.735
06/08/2003 3:30 p 71.8 70.5 70.5 70.7 70.3 74 61.8 0.0 2.0 ESE 0.00 29.733
06/08/2003 4:00 p 70.8 69.8 69.8 70.7 68.7 74 61.1 0.0 0.0 --- 0.00 29.726
06/08/2003 4:30 p 69.0 68.2 68.2 68.7 68.0 75 60.0 0.0 0.0 --- 0.00 29.721
06/08/2003 5:00 p 69.0 68.3 68.3 68.6 67.9 75 60.1 0.0 2.0 NNE 0.00 29.722
06/08/2003 5:30 p 67.4 67.4 67.4 67.9 67.0 74 58.8 0.0 2.0 NNE 0.00 29.723
06/08/2003 6:00 p 66.5 66.5 66.5 67.0 66.0 75 58.3 0.0 2.0 N 0.00 29.723
06/08/2003 6:30 p 66.3 66.3 66.3 66.4 66.0 74 57.8 0.0 2.0 N 0.00 29.720
06/08/2003 7:00 p 66.0 66.0 66.0 66.4 65.6 76 58.2 0.0 2.0 N 0.00 29.722
06/08/2003 7:30 p 65.1 65.1 65.1 65.6 64.7 76 57.4 0.0 2.0 N 0.00 29.724
06/08/2003 8:00 p 64.3 64.3 64.3 64.7 63.8 78 57.3 0.0 2.0 N 0.00 29.728
06/08/2003 8:30 p 63.3 63.3 63.3 63.8 62.9 78 56.3 0.0 1.0 N 0.00 29.736
06/08/2003 9:00 p 62.6 62.6 62.6 62.9 62.4 78 55.7 0.0 2.0 N 0.00 29.748
06/08/2003 9:30 p 62.2 62.2 62.2 62.4 61.9 79 55.6 0.0 2.0 N 0.00 29.747
06/08/2003 10:00 p 61.4 61.4 61.4 61.9 61.0 81 55.5 0.0 1.0 --- 0.00 29.753
06/08/2003 10:30 p 60.8 60.8 60.8 61.0 60.3 83 55.6 0.0 0.0 --- 0.00 29.753
06/08/2003 11:00 p 59.5 59.5 59.5 60.3 58.6 87 55.6 0.0 0.0 --- 0.00 29.747
06/08/2003 11:30 p 57.8 57.8 57.8 58.6 57.1 90 54.9 0.0 0.0 --- 0.00 29.744
06/09/2003 12:00 a 56.7 56.7 56.7 57.1 56.3 92 54.4 0.0 0.0 --- 0.00 29.733
06/09/2003 12:30 a 56.6 56.6 56.6 56.8 56.3 92 54.3 0.0 0.0 --- 0.00 29.726
06/09/2003 1:00 a 56.9 56.9 56.9 57.1 56.8 93 54.9 0.0 0.0 --- 0.00 29.720
06/09/2003 1:30 a 57.5 57.5 57.5 57.8 57.1 92 55.2 0.0 0.0 --- 0.00 29.723
06/09/2003 2:00 a 57.7 57.7 57.7 57.8 57.7 94 56.0 0.0 0.0 --- 0.00 29.719
06/09/2003 2:30 a 57.8 57.8 57.8 57.9 57.7 94 56.1 0.0 0.0 --- 0.00 29.711
06/09/2003 3:00 a 58.1 58.1 58.1 58.2 57.9 94 56.4 0.0 1.0 N 0.00 29.698
06/09/2003 3:30 a 58.2 58.2 58.2 58.2 58.1 94 56.5 0.0 0.0 --- 0.00 29.673
06/09/2003 4:00 a 57.9 57.9 57.9 58.1 57.6 95 56.5 0.0 1.0 N 0.00 29.680
06/09/2003 4:30 a 57.4 57.4 57.4 57.6 57.3 96 56.3 0.0 0.0 --- 0.00 29.672
06/09/2003 5:00 a 57.1 57.1 57.1 57.3 56.9 96 56.0 0.0 1.0 N 0.00 29.652
06/09/2003 5:30 a 56.7 56.7 56.7 57.0 56.6 96 55.6 0.0 1.0 N 0.00 29.663
06/09/2003 6:00 a 56.6 56.6 56.6 56.7 56.6 96 55.5 0.0 2.0 N 0.00 29.670
06/09/2003 6:30 a 56.7 56.7 56.7 56.8 56.6 96 55.6 0.0 0.0 --- 0.00 29.671
06/09/2003 7:00 a 56.9 56.9 56.9 57.0 56.7 96 55.8 0.0 0.0 --- 0.00 29.686
06/09/2003 7:30 a 56.9 56.9 56.9 57.0 56.8 96 55.8 0.0 1.0 --- 0.00 29.693
06/09/2003 8:00 a 57.2 57.2 57.2 57.5 56.9 96 56.1 0.0 0.0 --- 0.00 29.699
06/09/2003 8:30 a 57.9 57.9 57.9 58.1 57.5 96 56.8 0.0 0.0 --- 0.00 29.705
06/09/2003 9:00 a 58.2 58.2 58.2 58.6 58.0 95 56.8 0.0 0.0 --- 0.00 29.715
06/09/2003 9:30 a 58.9 58.9 58.9 59.2 58.5 94 57.2 0.0 1.0 --- 0.00 29.720
06/09/2003 10:00 a 59.4 59.4 59.4 59.9 59.0 93 57.4 0.0 1.0 --- 0.00 29.729
06/09/2003 10:30 a 60.6 60.6 60.6 61.2 59.9 90 57.7 0.0 1.0 --- 0.00 29.732
06/09/2003 11:00 a 61.6 61.6 61.6 62.6 61.0 89 58.3 0.0 0.0 --- 0.00 29.724
06/09/2003 11:30 a 63.8 63.8 63.8 66.9 62.6 79 57.2 0.0 2.0 N 0.00 29.716
06/09/2003 12:00 p 69.0 69.4 69.4 71.2 67.0 70 59.2 0.0 2.0 N 0.00 29.711
06/09/2003 12:30 p 76.0 76.2 76.2 81.2 69.5 57 59.9 0.0 3.0 N 0.00 29.707
06/09/2003 1:00 p 79.0 79.0 79.0 82.2 75.9 48 57.7 0.0 2.0 N 0.00 29.696
06/09/2003 1:30 p 83.0 83.3 83.3 86.8 80.6 40 56.5 0.0 3.0 SE 0.00 29.685
06/09/2003 2:00 p 86.2 85.7 85.7 87.1 84.8 41 59.3 0.0 4.0 N 0.00 29.676
06/11/2003 3:00 p 85.2 80.9 80.9 81.5 80.4 71 70.6 0.0 2.0 SSE 0.00 29.695
06/11/2003 3:30 p 81.8 79.0 79.0 80.4 78.0 74 70.0 0.0 3.0 SSE 0.00 29.703
06/11/2003 4:00 p 80.6 78.1 78.1 78.3 77.8 73 68.7 0.0 4.0 SSE 0.00 29.700
06/11/2003 4:30 p 81.0 79.2 79.2 81.9 78.1 66 66.9 0.0 1.0 --- 0.00 29.682
06/11/2003 5:00 p 84.6 82.0 82.0 82.7 81.4 62 67.7 0.0 4.0 SSE 0.00 29.682
06/11/2003 5:30 p 85.8 82.9 82.9 83.3 82.4 62 68.6 0.0 1.0 SE 0.00 29.686
06/11/2003 6:00 p 83.6 81.1 81.1 82.4 80.8 63 67.3 0.0 3.0 SE 0.00 29.687
06/11/2003 6:30 p 83.2 80.5 80.5 80.9 80.1 61 65.8 0.0 2.0 S 0.00 29.688
06/11/2003 7:00 p 82.3 79.6 79.6 80.1 79.4 63 65.9 0.0 2.0 NNE 0.00 29.687
06/11/2003 7:30 p 81.0 78.7 78.7 79.5 77.8 66 66.4 0.0 1.0 --- 0.00 29.689
06/11/2003 8:00 p 79.2 76.7 76.7 77.7 75.6 71 66.6 0.0 0.0 --- 0.00 29.697
06/11/2003 8:30 p 77.0 74.7 74.7 75.5 73.6 76 66.6 0.0 0.0 --- 0.00 29.698
06/11/2003 9:00 p 74.9 72.9 72.9 73.6 72.3 79 66.0 0.0 0.0 --- 0.00 29.701
06/11/2003 9:30 p 74.0 71.9 71.9 72.3 71.5 82 66.1 0.0 0.0 --- 0.00 29.709
06/11/2003 10:00 p 73.0 71.3 71.3 71.5 70.9 84 66.2 0.0 0.0 --- 0.00 29.713
06/11/2003 10:30 p 73.0 71.0 71.0 71.1 70.8 84 65.9 0.0 0.0 --- 0.00 29.722
06/11/2003 11:00 p 73.0 70.5 70.5 70.8 70.3 87 66.4 0.0 0.0 --- 0.00 29.722
06/11/2003 11:30 p 73.0 70.7 70.7 70.8 70.5 88 67.0 0.0 0.0 --- 0.00 29.720
06/12/2003 12:00 a 72.8 70.0 70.0 70.5 69.7 94 68.2 0.0 0.0 --- 0.00 29.725
06/12/2003 12:30 a 73.2 69.5 69.5 69.7 69.4 96 68.3 0.0 0.0 --- 0.00 29.730
06/12/2003 1:00 a 73.4 69.6 69.6 69.7 69.4 97 68.7 0.0 0.0 --- 0.03 29.735
06/12/2003 1:30 a 73.4 69.5 69.5 69.8 69.1 97 68.6 0.0 3.0 SE 0.34 29.746
06/12/2003 2:00 a 71.7 68.6 68.6 69.1 68.3 97 67.7 0.0 1.0 SE 0.29 29.721
06/12/2003 2:30 a 70.0 68.4 68.4 68.5 68.2 98 67.8 0.0 0.0 --- 0.00 29.715
06/12/2003 3:00 a 70.0 68.2 68.2 68.2 68.1 98 67.6 0.0 0.0 --- 0.00 29.718
06/12/2003 3:30 a 70.0 68.1 68.1 68.1 68.0 98 67.5 0.0 0.0 --- 0.00 29.725
06/12/2003 4:00 a 70.0 68.0 68.0 68.2 67.9 98 67.4 0.0 0.0 --- 0.00 29.712
06/12/2003 4:30 a 67.7 67.7 67.7 67.9 67.4 98 67.1 0.0 0.0 --- 0.00 29.713
06/12/2003 5:00 a 67.1 67.1 67.1 67.4 66.9 98 66.5 0.0 0.0 --- 0.00 29.721
06/12/2003 5:30 a 66.6 66.6 66.6 66.9 66.4 98 66.0 0.0 0.0 --- 0.00 29.717
06/12/2003 6:00 a 66.3 66.3 66.3 66.4 66.2 98 65.7 0.0 0.0 --- 0.00 29.724
06/12/2003 6:30 a 66.4 66.4 66.4 66.7 66.2 98 65.8 0.0 0.0 --- 0.00 29.735
06/12/2003 7:00 a 67.1 67.1 67.1 67.5 66.7 98 66.5 0.0 0.0 --- 0.00 29.743
06/12/2003 7:30 a 70.0 68.2 68.2 68.8 67.5 98 67.6 0.0 0.0 --- 0.00 29.744
06/12/2003 8:00 a 71.8 69.2 69.2 69.8 68.8 98 68.6 0.0 0.0 --- 0.00 29.747
06/12/2003 8:30 a 74.6 70.5 70.5 70.7 69.8 98 69.9 0.0 0.0 --- 0.00 29.759
06/12/2003 9:00 a 75.6 71.5 71.5 72.1 70.7 98 70.9 0.0 0.0 --- 0.00 29.762
06/12/2003 9:30 a 75.6 72.4 72.4 72.9 71.8 98 71.8 0.0 1.0 SE 0.00 29.766
06/12/2003 10:00 a 76.6 73.2 73.2 73.7 72.9 98 72.6 0.0 0.0 --- 0.00 29.767
06/12/2003 10:30 a 77.4 74.4 74.4 75.1 73.6 97 73.5 0.0 1.0 SE 0.00 29.771
06/12/2003 11:00 a 78.6 75.2 75.2 75.9 74.8 96 74.0 0.0 0.0 --- 0.00 29.780
06/12/2003 11:30 a 80.0 76.2 76.2 76.5 75.9 96 75.0 0.0 1.0 SE 0.00 29.782
06/12/2003 12:00 p 81.4 77.4 77.4 78.8 76.4 94 75.5 0.0 1.0 SE 0.00 29.781
06/12/2003 12:30 p 88.8 80.8 80.8 83.8 78.8 89 77.3 0.0 1.0 --- 0.00 29.784
06/12/2003 1:00 p 95.6 84.0 84.0 85.7 82.8 84 78.6 0.0 1.0 SE 0.00 29.778
06/12/2003 1:30 p 88.4 80.9 80.9 83.9 79.6 87 76.7 0.0 1.0 --- 0.00 29.774
06/12/2003 2:00 p 83.4 79.2 79.2 79.6 78.9 82 73.2 0.0 0.0 --- 0.00 29.781
06/12/2003 2:30 p 84.4 79.6 79.6 80.4 79.1 77 71.8 0.0 0.0 --- 0.00 29.779
06/15/2003 7:00 p 77.0 77.2 77.2 77.6 76.7 60 62.3 0.0 2.0 SSE 0.00 29.795
06/15/2003 7:30 p 76.6 75.5 75.5 76.7 74.4 63 62.0 0.0 0.0 --- 0.00 29.806
06/15/2003 8:00 p 74.3 73.4 73.4 74.4 72.4 73 64.2 0.0 0.0 --- 0.00 29.812
06/15/2003 8:30 p 72.0 71.3 71.3 72.4 70.4 75 63.0 0.0 0.0 --- 0.00 29.822
06/15/2003 9:00 p 71.6 69.6 69.6 70.4 68.8 78 62.4 0.0 0.0 --- 0.00 29.828
06/15/2003 9:30 p 70.0 68.3 68.3 68.8 67.7 83 62.9 0.0 0.0 --- 0.00 29.849
06/15/2003 10:00 p 66.9 66.9 66.9 67.7 66.2 85 62.2 0.0 0.0 --- 0.00 29.857
06/15/2003 10:30 p 66.0 66.0 66.0 66.2 65.6 88 62.3 0.0 0.0 --- 0.00 29.872
06/15/2003 11:00 p 66.0 66.0 66.0 66.8 65.7 73 57.1 0.0 1.0 --- 0.00 29.878
06/15/2003 11:30 p 66.9 66.9 66.9 67.4 66.4 74 58.4 0.0 1.0 --- 0.00 29.886
06/16/2003 12:00 a 65.7 65.7 65.7 66.4 65.2 69 55.3 0.0 0.0 --- 0.00 29.896
06/16/2003 12:30 a 65.4 65.4 65.4 65.9 64.8 63 52.5 0.0 0.0 --- 0.00 29.904
06/16/2003 1:00 a 64.9 64.9 64.9 65.0 64.6 59 50.2 0.0 0.0 --- 0.00 29.908
06/16/2003 1:30 a 64.0 64.0 64.0 64.8 62.4 68 53.2 0.0 0.0 --- 0.00 29.914
06/16/2003 2:00 a 61.0 61.0 61.0 62.4 59.9 76 53.4 0.0 0.0 --- 0.00 29.924
06/16/2003 2:30 a 59.7 59.7 59.7 59.9 59.6 70 49.9 0.0 0.0 --- 0.00 29.927
06/16/2003 3:00 a 60.1 60.1 60.1 60.7 59.7 66 48.7 0.0 0.0 --- 0.00 29.934
06/16/2003 3:30 a 61.1 61.1 61.1 61.3 60.7 63 48.4 0.0 0.0 --- 0.00 29.943
06/16/2003 4:00 a 60.9 60.9 60.9 61.0 60.7 63 48.2 0.0 0.0 --- 0.00 29.953
06/16/2003 4:30 a 60.5 60.5 60.5 60.8 60.0 68 49.9 0.0 0.0 --- 0.00 29.963
06/16/2003 5:00 a 59.6 59.6 59.6 60.0 59.3 65 47.8 0.0 0.0 --- 0.00 29.970
06/16/2003 5:30 a 59.2 59.2 59.2 59.5 58.9 69 49.0 0.0 0.0 --- 0.00 29.987
06/16/2003 6:00 a 58.6 58.6 58.6 58.9 58.3 70 48.9 0.0 0.0 --- 0.00 29.995
06/16/2003 6:30 a 58.1 58.1 58.1 58.3 57.8 73 49.5 0.0 0.0 --- 0.00 30.005
06/16/2003 7:00 a 58.0 58.0 58.0 58.5 57.7 75 50.1 0.0 0.0 --- 0.00 30.017
06/16/2003 7:30 a 60.9 60.9 60.9 67.5 58.5 60 46.9 0.0 0.0 --- 0.00 30.027
06/16/2003 8:00 a 67.1 67.1 67.1 68.8 65.9 62 53.7 0.0 3.0 N 0.00 30.034
06/16/2003 8:30 a 65.9 65.9 65.9 66.9 65.4 63 53.0 0.0 3.0 N 0.00 30.049
06/16/2003 9:00 a 65.6 65.6 65.6 65.9 65.4 63 52.7 0.0 4.0 N 0.00 30.060
06/16/2003 9:30 a 66.1 66.1 66.1 66.6 65.7 61 52.3 0.0 3.0 N 0.00 30.064
06/16/2003 10:00 a 66.4 66.4 66.4 66.9 66.0 59 51.7 1.0 3.0 N 0.00 30.076
06/16/2003 10:30 a 67.8 68.1 68.1 68.8 66.9 59 53.2 0.0 3.0 N 0.00 30.081
06/16/2003 11:00 a 67.3 67.3 67.3 68.1 66.6 66 55.6 1.0 4.0 N 0.00 30.093
06/16/2003 11:30 a 67.0 67.0 67.0 67.6 66.5 64 54.4 1.0 4.0 N 0.00 30.105
06/16/2003 12:00 p 66.4 66.4 66.4 67.1 65.9 63 53.4 1.0 4.0 N 0.00 30.109
06/16/2003 12:30 p 67.2 69.2 69.2 73.1 67.1 51 50.3 1.0 3.0 N 0.00 30.118
06/16/2003 1:00 p 71.2 72.0 72.0 73.2 70.7 52 53.4 1.0 4.0 N 0.00 30.114
06/16/2003 1:30 p 71.4 71.8 71.8 72.5 70.9 54 54.3 1.0 4.0 N 0.00 30.114
06/16/2003 2:00 p 73.8 73.8 73.8 75.3 72.0 49 53.5 1.0 5.0 N 0.00 30.118
06/16/2003 2:30 p 74.6 74.6 74.6 75.5 73.4 48 53.6 1.0 6.0 N 0.00 30.126
06/16/2003 3:00 p 74.2 75.0 75.0 76.3 74.0 46 52.8 1.0 4.0 N 0.00 30.126
06/16/2003 3:30 p 70.8 72.3 72.3 74.0 70.9 48 51.5 1.0 5.0 N 0.00 30.128
06/16/2003 4:00 p 68.0 69.7 69.7 71.3 67.1 50 50.3 1.0 6.0 N 0.00 30.130
06/16/2003 4:30 p 66.5 66.5 66.5 67.2 66.0 52 48.4 1.0 4.0 N 0.00 30.126
06/16/2003 5:00 p 66.6 66.6 66.6 66.9 66.0 49 46.9 1.0 4.0 N 0.00 30.118
06/16/2003 5:30 p 66.3 66.3 66.3 66.7 65.8 51 47.7 0.0 3.0 N 0.00 30.109
06/16/2003 6:00 p 64.8 64.8 64.8 65.8 64.3 54 47.8 1.0 3.0 N 0.00 30.109
06/16/2003 6:30 p 63.4 63.4 63.4 64.4 62.7 63 50.6 1.0 3.0 N 0.00 30.114
06/16/2003 7:00 p 62.1 62.1 62.1 62.7 61.7 66 50.6 1.0 3.0 N 0.00 30.121
06/16/2003 7:30 p 61.1 61.1 61.1 61.7 60.5 69 50.9 0.0 3.0 N 0.00 30.122
06/16/2003 8:00 p 60.0 60.0 60.0 60.5 59.5 71 50.6 0.0 3.0 N 0.00 30.126
06/16/2003 8:30 p 59.0 59.0 59.0 59.5 58.5 73 50.4 0.0 2.0 N 0.00 30.136
06/16/2003 9:00 p 57.9 57.9 57.9 58.5 57.6 74 49.7 0.0 1.0 N 0.00 30.141
06/16/2003 9:30 p 57.2 57.2 57.2 57.6 56.8 76 49.7 0.0 0.0 --- 0.00 30.151
06/16/2003 10:00 p 56.0 56.0 56.0 56.8 55.2 81 50.3 0.0 0.0 --- 0.00 30.160
06/16/2003 10:30 p 54.9 54.9 54.9 55.2 54.7 82 49.5 0.0 0.0 --- 0.00 30.156
06/16/2003 11:00 p 54.1 54.1 54.1 54.7 53.4 86 50.0 0.0 0.0 --- 0.00 30.164
06/16/2003 11:30 p 52.9 52.9 52.9 53.4 52.7 89 49.8 0.0 0.0 --- 0.00 30.166
06/17/2003 12:00 a 52.2 52.2 52.2 52.7 51.8 90 49.4 0.0 0.0 --- 0.00 30.158
06/17/2003 12:30 a 51.6 51.6 51.6 51.8 51.3 91 49.1 0.0 0.0 --- 0.00 30.159
06/17/2003 1:00 a 51.0 51.0 51.0 51.3 50.7 91 48.5 0.0 0.0 --- 0.00 30.164
06/17/2003 1:30 a 50.4 50.4 50.4 50.7 50.3 93 48.5 0.0 0.0 --- 0.00 30.157
06/17/2003 2:00 a 50.2 50.2 50.2 50.3 50.0 92 48.0 0.0 0.0 --- 0.00 30.154
06/17/2003 2:30 a 49.8 49.8 49.8 50.0 49.6 93 47.9 0.0 0.0 --- 0.00 30.156
06/17/2003 3:00 a 49.6 49.6 49.6 49.7 49.5 93 47.7 0.0 0.0 --- 0.00 30.154
06/17/2003 3:30 a 49.5 49.5 49.5 49.5 49.4 93 47.6 0.0 0.0 --- 0.00 30.154
06/17/2003 4:00 a 49.4 49.4 49.4 49.5 49.3 94 47.7 0.0 0.0 --- 0.00 30.152
06/17/2003 4:30 a 49.4 49.4 49.4 49.5 49.2 94 47.7 0.0 0.0 --- 0.00 30.151
06/17/2003 5:00 a 49.7 49.7 49.7 50.2 49.4 94 48.0 0.0 0.0 --- 0.00 30.150
06/17/2003 5:30 a 50.8 50.8 50.8 51.2 50.2 94 49.1 0.0 0.0 --- 0.00 30.150
06/17/2003 6:00 a 51.4 51.4 51.4 51.9 51.2 94 49.7 0.0 0.0 --- 0.00 30.150
06/17/2003 6:30 a 52.5 52.5 52.5 53.2 51.9 93 50.5 0.0 0.0 --- 0.00 30.151
06/17/2003 7:00 a 54.1 54.1 54.1 55.0 53.2 87 50.3 0.0 1.0 --- 0.00 30.149
06/17/2003 7:30 a 55.7 55.7 55.7 56.2 55.0 83 50.6 0.0 0.0 --- 0.00 30.153
06/17/2003 8:00 a 57.0 57.0 57.0 57.9 56.2 78 50.2 0.0 0.0 --- 0.00 30.150
06/17/2003 8:30 a 58.2 58.2 58.2 58.7 57.9 76 50.7 0.0 0.0 --- 0.00 30.147
06/17/2003 9:00 a 59.2 59.2 59.2 60.1 58.7 71 49.8 0.0 1.0 N 0.00 30.147
06/17/2003 9:30 a 60.9 60.9 60.9 62.4 59.5 67 49.9 0.0 2.0 ESE 0.00 30.142
06/17/2003 10:00 a 62.5 62.5 62.5 63.1 61.8 65 50.6 0.0 2.0 NNE 0.00 30.133
06/17/2003 10:30 a 65.1 65.1 65.1 66.2 63.1 61 51.3 0.0 2.0 NNE 0.00 30.127
06/17/2003 11:00 a 65.0 65.0 65.0 65.4 64.7 58 49.9 0.0 3.0 N 0.00 30.122
06/17/2003 11:30 a 65.8 65.8 65.8 66.3 65.3 58 50.6 1.0 4.0 N 0.00 30.115
06/17/2003 12:00 p 66.7 66.7 66.7 67.3 66.3 53 49.0 1.0 3.0 N 0.00 30.108
06/17/2003 12:30 p 66.9 66.9 66.9 67.6 66.5 53 49.2 0.0 3.0 N 0.00 30.102
06/17/2003 1:00 p 68.0 69.5 69.5 71.3 67.0 47 48.4 0.0 3.0 N 0.00 30.093
06/17/2003 1:30 p 70.3 71.8 71.8 74.4 70.5 43 48.1 0.0 2.0 N 0.00 30.087
06/17/2003 2:00 p 73.0 75.4 75.4 77.5 74.1 40 49.4 1.0 4.0 N 0.00 30.076
06/17/2003 2:30 p 76.7 77.7 77.7 78.9 76.7 37 49.4 1.0 4.0 N 0.00 30.069
06/17/2003 3:00 p 76.8 77.8 77.8 78.7 77.1 38 50.2 0.0 4.0 N 0.00 30.067
06/17/2003 3:30 p 76.8 78.0 78.0 78.6 76.8 38 50.4 0.0 4.0 N 0.00 30.057
06/17/2003 4:00 p 74.0 73.9 73.9 76.9 70.8 51 54.7 0.0 3.0 N 0.00 30.048
06/17/2003 4:30 p 68.6 68.9 68.9 70.8 67.4 58 53.5 0.0 3.0 NNE 0.00 30.041
06/17/2003 5:00 p 67.4 67.4 67.4 68.0 67.1 61 53.5 0.0 3.0 N 0.00 30.031
06/17/2003 5:30 p 68.0 68.0 68.0 68.3 67.6 61 54.1 0.0 3.0 N 0.00 30.026
06/17/2003 6:00 p 67.2 67.2 67.2 67.6 66.5 65 55.1 0.0 2.0 N 0.00 30.019
06/17/2003 6:30 p 65.8 65.8 65.8 66.5 65.7 67 54.6 0.0 2.0 N 0.00 30.010
06/17/2003 7:00 p 65.1 65.1 65.1 65.7 64.2 70 55.1 0.0 3.0 N 0.00 30.012
06/17/2003 7:30 p 63.9 63.9 63.9 64.2 63.6 72 54.7 0.0 2.0 N 0.00 30.008
06/17/2003 8:00 p 63.5 63.5 63.5 63.6 63.2 71 53.9 0.0 3.0 N 0.00 30.002
06/17/2003 8:30 p 62.8 62.8 62.8 63.2 62.3 75 54.8 0.0 2.0 N 0.00 30.001
06/17/2003 9:00 p 61.8 61.8 61.8 62.3 61.4 76 54.2 0.0 1.0 N 0.00 30.002
06/17/2003 9:30 p 61.2 61.2 61.2 61.4 60.9 78 54.3 0.0 1.0 --- 0.00 30.003
06/17/2003 10:00 p 60.6 60.6 60.6 60.9 60.3 80 54.4 0.0 1.0 N 0.00 30.005
06/17/2003 10:30 p 60.1 60.1 60.1 60.3 60.0 81 54.3 0.0 1.0 --- 0.00 30.001
06/17/2003 11:00 p 59.9 59.9 59.9 60.0 59.8 82 54.4 0.0 2.0 N 0.00 29.995
06/17/2003 11:30 p 59.6 59.6 59.6 59.8 59.5 83 54.4 0.0 2.0 N 0.00 29.989
06/18/2003 12:00 a 59.7 59.7 59.7 59.7 59.5 83 54.5 0.0 0.0 --- 0.00 29.988
06/18/2003 12:30 a 59.7 59.7 59.7 59.7 59.5 84 54.9 0.0 1.0 --- 0.00 29.981
06/18/2003 1:00 a 58.6 58.6 58.6 59.5 57.9 95 57.2 0.0 0.0 --- 0.01 29.972
06/18/2003 1:30 a 57.9 57.9 57.9 57.9 57.9 96 56.8 0.0 0.0 --- 0.04 29.959
06/18/2003 2:00 a 57.9 57.9 57.9 58.1 57.9 96 56.8 0.0 0.0 --- 0.03 29.946
06/18/2003 2:30 a 58.3 58.3 58.3 58.4 58.1 97 57.5 0.0 0.0 --- 0.01 29.931
06/18/2003 3:00 a 58.5 58.5 58.5 58.7 58.4 96 57.4 0.0 0.0 --- 0.03 29.918
06/18/2003 3:30 a 58.8 58.8 58.8 58.9 58.7 97 58.0 0.0 0.0 --- 0.02 29.918
06/18/2003 4:00 a 58.7 58.7 58.7 58.9 58.7 97 57.9 0.0 0.0 --- 0.11 29.904
06/18/2003 4:30 a 58.8 58.8 58.8 58.8 58.7 97 58.0 0.0 0.0 --- 0.14 29.901
06/18/2003 5:00 a 58.9 58.9 58.9 58.9 58.8 98 58.3 0.0 0.0 --- 0.06 29.899
06/18/2003 5:30 a 58.7 58.7 58.7 58.8 58.6 97 57.9 0.0 0.0 --- 0.03 29.898
06/18/2003 6:00 a 58.7 58.7 58.7 58.8 58.7 98 58.1 0.0 0.0 --- 0.03 29.896
06/18/2003 6:30 a 58.9 58.9 58.9 58.9 58.7 97 58.1 0.0 0.0 --- 0.03 29.893
06/18/2003 7:00 a 58.8 58.8 58.8 58.9 58.7 98 58.2 0.0 0.0 --- 0.05 29.888
06/18/2003 7:30 a 58.6 58.6 58.6 58.7 58.5 97 57.8 0.0 0.0 --- 0.10 29.882
06/18/2003 8:00 a 58.6 58.6 58.6 58.8 58.5 98 58.0 0.0 0.0 --- 0.07 29.872
06/18/2003 8:30 a 58.6 58.6 58.6 58.9 58.4 98 58.0 0.0 0.0 --- 0.04 29.861
06/18/2003 9:00 a 59.1 59.1 59.1 59.4 58.9 98 58.5 0.0 0.0 --- 0.02 29.859
06/18/2003 9:30 a 60.0 60.0 60.0 60.3 59.4 98 59.4 0.0 0.0 --- 0.00 29.851
06/18/2003 10:00 a 60.9 60.9 60.9 61.5 60.1 98 60.3 0.0 0.0 --- 0.00 29.834
06/18/2003 10:30 a 61.3 61.3 61.3 61.5 61.1 98 60.7 0.0 0.0 --- 0.00 29.825
06/18/2003 11:00 a 61.7 61.7 61.7 61.9 61.4 98 61.1 0.0 0.0 --- 0.00 29.810
06/18/2003 11:30 a 62.3 62.3 62.3 62.7 61.8 98 61.7 0.0 1.0 N 0.00 29.808
06/18/2003 12:00 p 62.9 62.9 62.9 63.2 62.6 98 62.3 0.0 1.0 N 0.00 29.800
06/18/2003 12:30 p 63.7 63.7 63.7 64.2 63.2 98 63.1 0.0 0.0 --- 0.00 29.798
06/18/2003 1:00 p 64.2 64.2 64.2 64.5 63.9 97 63.3 0.0 0.0 --- 0.00 29.794
06/18/2003 1:30 p 64.6 64.6 64.6 64.7 64.4 97 63.7 0.0 0.0 --- 0.00 29.792
06/18/2003 2:00 p 64.4 64.4 64.4 64.5 64.3 98 63.8 0.0 0.0 --- 0.00 29.781
06/18/2003 2:30 p 65.0 65.0 65.0 65.4 64.5 98 64.4 0.0 0.0 --- 0.00 29.772
06/18/2003 3:00 p 67.1 67.1 67.1 67.8 65.4 96 65.9 0.0 2.0 N 0.00 29.765
06/18/2003 3:30 p 67.5 67.5 67.5 68.0 67.1 96 66.3 0.0 0.0 --- 0.00 29.757
06/18/2003 4:00 p 67.9 67.9 67.9 68.0 67.9 96 66.7 0.0 0.0 --- 0.00 29.749
06/18/2003 4:30 p 71.5 68.5 68.5 69.7 68.0 95 67.0 0.0 0.0 --- 0.00 29.735
06/18/2003 5:00 p 72.8 70.4 70.4 71.1 69.7 94 68.6 0.0 1.0 N 0.00 29.730
06/18/2003 5:30 p 73.0 69.6 69.6 70.7 69.0 95 68.1 0.0 0.0 --- 0.00 29.721
06/18/2003 6:00 p 71.4 68.9 68.9 69.0 68.8 94 67.1 0.0 0.0 --- 0.00 29.715
06/18/2003 6:30 p 71.4 68.7 68.7 68.8 68.4 94 66.9 0.0 0.0 --- 0.00 29.715
06/18/2003 7:00 p 70.0 68.2 68.2 68.4 67.9 93 66.1 0.0 0.0 --- 0.00 29.713
06/18/2003 7:30 p 67.7 67.7 67.7 67.9 67.4 93 65.6 0.0 0.0 --- 0.00 29.708
06/18/2003 8:00 p 67.2 67.2 67.2 67.4 66.9 93 65.1 0.0 0.0 --- 0.00 29.705
06/18/2003 8:30 p 66.7 66.7 66.7 66.9 66.6 92 64.3 0.0 0.0 --- 0.00 29.701
06/18/2003 9:00 p 66.3 66.3 66.3 66.6 66.2 93 64.2 0.0 0.0 --- 0.00 29.696
06/18/2003 9:30 p 66.0 66.0 66.0 66.2 65.8 94 64.2 0.0 0.0 --- 0.00 29.702
06/18/2003 10:00 p 65.7 65.7 65.7 65.8 65.5 94 63.9 0.0 0.0 --- 0.00 29.714
06/18/2003 10:30 p 65.2 65.2 65.2 65.5 64.4 94 63.4 0.0 0.0 --- 0.00 29.712
06/18/2003 11:00 p 63.9 63.9 63.9 64.4 63.3 96 62.7 0.0 0.0 --- 0.00 29.712
06/18/2003 11:30 p 62.8 62.8 62.8 63.3 62.5 97 61.9 0.0 0.0 --- 0.00 29.714
06/19/2003 12:00 a 62.2 62.2 62.2 62.5 61.9 97 61.3 0.0 0.0 --- 0.00 29.710
06/19/2003 12:30 a 61.8 61.8 61.8 61.9 61.7 97 60.9 0.0 0.0 --- 0.00 29.707
06/19/2003 1:00 a 61.3 61.3 61.3 61.8 60.8 97 60.4 0.0 0.0 --- 0.00 29.699
06/19/2003 1:30 a 60.6 60.6 60.6 60.8 60.4 97 59.7 0.0 0.0 --- 0.00 29.696
06/19/2003 2:00 a 60.5 60.5 60.5 60.8 60.3 97 59.6 0.0 0.0 --- 0.00 29.698
06/19/2003 2:30 a 61.3 61.3 61.3 61.7 60.8 97 60.4 0.0 0.0 --- 0.00 29.689
06/19/2003 3:00 a 61.9 61.9 61.9 61.9 61.7 97 61.0 0.0 0.0 --- 0.00 29.676
06/19/2003 3:30 a 62.1 62.1 62.1 62.3 61.9 97 61.2 0.0 0.0 --- 0.00 29.675
06/19/2003 4:00 a 62.4 62.4 62.4 62.5 62.3 97 61.5 0.0 0.0 --- 0.00 29.672
06/19/2003 4:30 a 62.7 62.7 62.7 62.8 62.5 98 62.1 0.0 0.0 --- 0.00 29.670
06/19/2003 5:00 a 63.0 63.0 63.0 63.1 62.8 98 62.4 0.0 0.0 --- 0.00 29.665
06/19/2003 5:30 a 63.2 63.2 63.2 63.3 63.1 97 62.3 0.0 0.0 --- 0.00 29.662
06/19/2003 6:00 a 63.4 63.4 63.4 63.5 63.3 97 62.5 0.0 0.0 --- 0.00 29.666
06/19/2003 6:30 a 63.5 63.5 63.5 63.7 63.4 98 62.9 0.0 0.0 --- 0.00 29.663
06/19/2003 7:00 a 63.9 63.9 63.9 64.1 63.6 97 63.0 0.0 0.0 --- 0.00 29.662
06/19/2003 7:30 a 64.1 64.1 64.1 64.2 64.1 97 63.2 0.0 0.0 --- 0.00 29.669
06/19/2003 8:00 a 64.3 64.3 64.3 64.4 64.2 98 63.7 0.0 0.0 --- 0.00 29.670
06/19/2003 8:30 a 64.4 64.4 64.4 64.4 64.3 98 63.8 0.0 0.0 --- 0.01 29.675
06/19/2003 9:00 a 64.5 64.5 64.5 64.6 64.4 98 63.9 0.0 0.0 --- 0.02 29.672
06/19/2003 9:30 a 64.9 64.9 64.9 65.1 64.6 98 64.3 0.0 0.0 --- 0.01 29.669
06/19/2003 10:00 a 65.5 65.5 65.5 66.1 65.0 98 64.9 0.0 0.0 --- 0.01 29.667
06/19/2003 10:30 a 66.5 66.5 66.5 66.9 66.1 98 65.9 0.0 0.0 --- 0.00 29.672
06/19/2003 11:00 a 67.0 67.0 67.0 67.1 66.8 98 66.4 0.0 0.0 --- 0.01 29.669
06/19/2003 11:30 a 67.3 67.3 67.3 67.8 66.8 98 66.7 0.0 0.0 --- 0.00 29.663
06/19/2003 12:00 p 70.0 68.3 68.3 68.9 67.8 98 67.7 0.0 0.0 --- 0.00 29.661
06/19/2003 12:30 p 71.8 69.0 69.0 69.3 68.8 98 68.4 0.0 0.0 --- 0.00 29.655
06/19/2003 1:00 p 71.8 69.0 69.0 69.6 68.6 98 68.4 0.0 0.0 --- 0.00 29.655
06/19/2003 1:30 p 71.8 69.3 69.3 69.5 69.1 98 68.7 0.0 1.0 --- 0.00 29.638
06/19/2003 2:00 p 71.8 69.3 69.3 69.4 69.1 98 68.7 0.0 0.0 --- 0.00 29.634
06/19/2003 2:30 p 71.8 68.9 68.9 69.2 68.7 98 68.3 0.0 0.0 --- 0.00 29.628
06/19/2003 3:00 p 71.8 69.0 69.0 69.9 68.7 98 68.4 0.0 0.0 --- 0.00 29.621
06/19/2003 3:30 p 75.2 71.5 71.5 72.9 69.9 96 70.3 0.0 1.0 N 0.00 29.612
06/19/2003 4:00 p 75.8 73.1 73.1 73.7 72.6 94 71.3 0.0 1.0 N 0.00 29.602
06/19/2003 4:30 p 76.8 73.7 73.7 74.2 73.2 94 71.9 0.0 1.0 --- 0.00 29.595
06/19/2003 5:00 p 76.6 73.8 73.8 74.4 73.1 93 71.7 0.0 1.0 N 0.00 29.588
06/19/2003 5:30 p 76.6 74.1 74.1 74.6 73.8 93 72.0 0.0 0.0 --- 0.00 29.581
06/19/2003 6:00 p 76.8 73.7 73.7 74.2 72.9 94 71.9 0.0 0.0 --- 0.00 29.585
06/19/2003 6:30 p 75.6 72.6 72.6 72.9 72.4 93 70.5 0.0 0.0 --- 0.00 29.584
06/19/2003 7:00 p 74.6 71.9 71.9 72.4 71.7 93 69.8 0.0 0.0 --- 0.00 29.580
06/19/2003 7:30 p 73.8 71.2 71.2 71.7 70.5 94 69.4 0.0 0.0 --- 0.00 29.585
06/19/2003 8:00 p 72.8 70.1 70.1 70.5 69.5 94 68.3 0.0 0.0 --- 0.00 29.588
06/19/2003 8:30 p 71.5 68.6 68.6 69.5 67.9 95 67.1 0.0 0.0 --- 0.00 29.586
06/19/2003 9:00 p 67.3 67.3 67.3 67.9 66.8 96 66.1 0.0 0.0 --- 0.00 29.589
06/19/2003 9:30 p 66.4 66.4 66.4 66.8 66.0 96 65.2 0.0 0.0 --- 0.00 29.599
06/19/2003 10:00 p 65.9 65.9 65.9 66.0 65.8 97 65.0 0.0 0.0 --- 0.00 29.610
06/19/2003 10:30 p 65.7 65.7 65.7 65.8 65.6 97 64.8 0.0 0.0 --- 0.00 29.614
06/19/2003 11:00 p 65.7 65.7 65.7 65.8 65.6 97 64.8 0.0 0.0 --- 0.00 29.620
06/19/2003 11:30 p 65.6 65.6 65.6 65.8 65.5 97 64.7 0.0 0.0 --- 0.00 29.625
06/20/2003 12:00 a 65.6 65.6 65.6 65.6 65.5 97 64.7 0.0 0.0 --- 0.00 29.624
06/20/2003 12:30 a 65.5 65.5 65.5 65.6 65.4 97 64.6 0.0 0.0 --- 0.00 29.627
06/20/2003 1:00 a 65.8 65.8 65.8 65.9 65.5 97 64.9 0.0 0.0 --- 0.00 29.623
06/20/2003 1:30 a 65.8 65.8 65.8 65.8 65.8 97 64.9 0.0 0.0 --- 0.01 29.637
06/20/2003 2:00 a 65.0 65.0 65.0 65.9 64.1 97 64.1 0.0 4.0 SSE 0.00 29.632
06/20/2003 2:30 a 63.8 63.8 63.8 64.1 63.6 97 62.9 0.0 1.0 --- 0.00 29.630
06/20/2003 3:00 a 63.5 63.5 63.5 63.6 63.4 98 62.9 0.0 0.0 --- 0.00 29.632
06/20/2003 3:30 a 63.4 63.4 63.4 63.5 63.4 98 62.8 0.0 0.0 --- 0.00 29.630
06/20/2003 4:00 a 63.4 63.4 63.4 63.5 63.3 98 62.8 0.0 0.0 --- 0.00 29.638
06/20/2003 4:30 a 63.3 63.3 63.3 63.4 63.3 98 62.7 0.0 0.0 --- 0.00 29.642
06/20/2003 5:00 a 63.5 63.5 63.5 63.6 63.4 98 62.9 0.0 0.0 --- 0.00 29.644
06/20/2003 5:30 a 63.5 63.5 63.5 63.5 63.4 98 62.9 0.0 0.0 --- 0.00 29.660
06/20/2003 6:00 a 63.6 63.6 63.6 63.6 63.5 98 63.0 0.0 2.0 E 0.00 29.668
06/20/2003 6:30 a 63.4 63.4 63.4 63.5 63.3 98 62.8 0.0 2.0 E 0.00 29.678
06/20/2003 7:00 a 63.2 63.2 63.2 63.3 63.1 98 62.6 0.0 2.0 E 0.00 29.683
06/20/2003 7:30 a 63.2 63.2 63.2 63.2 63.1 98 62.6 0.0 1.0 E 0.00 29.690
06/20/2003 8:00 a 63.1 63.1 63.1 63.1 63.0 98 62.5 0.0 1.0 E 0.01 29.704
06/20/2003 8:30 a 62.9 62.9 62.9 63.0 62.9 98 62.3 0.0 1.0 --- 0.01 29.712
06/20/2003 9:00 a 63.0 63.0 63.0 63.4 62.9 100 63.0 0.0 2.0 E 0.06 29.721
06/20/2003 9:30 a 63.5 63.5 63.5 63.8 63.4 98 62.9 0.0 1.0 --- 0.01 29.710
06/20/2003 10:00 a 64.4 64.4 64.4 64.9 63.8 98 63.8 0.0 1.0 E 0.01 29.714
06/20/2003 10:30 a 65.1 65.1 65.1 65.3 64.9 98 64.5 0.0 2.0 E 0.00 29.717
06/20/2003 11:00 a 65.1 65.1 65.1 65.3 65.0 98 64.5 0.0 1.0 --- 0.00 29.730
06/20/2003 11:30 a 65.3 65.3 65.3 65.4 65.1 98 64.7 0.0 1.0 --- 0.00 29.724
06/20/2003 12:00 p 65.2 65.2 65.2 65.4 65.1 98 64.6 0.0 2.0 E 0.00 29.724
06/20/2003 12:30 p 65.3 65.3 65.3 65.4 65.2 98 64.7 0.0 1.0 E 0.00 29.725
06/20/2003 1:00 p 65.2 65.2 65.2 65.5 65.2 98 64.6 0.0 0.0 --- 0.00 29.717
06/20/2003 1:30 p 65.6 65.6 65.6 66.1 65.4 98 65.0 0.0 1.0 --- 0.00 29.711
06/20/2003 2:00 p 66.3 66.3 66.3 66.6 66.0 98 65.7 0.0 1.0 E 0.00 29.711
06/20/2003 2:30 p 66.1 66.1 66.1 66.3 65.8 98 65.5 0.0 1.0 E 0.00 29.710
06/20/2003 3:00 p 66.0 66.0 66.0 66.3 65.8 98 65.4 0.0 2.0 N 0.00 29.705
06/20/2003 3:30 p 65.6 65.6 65.6 65.8 65.4 98 65.0 0.0 2.0 N 0.00 29.708
06/20/2003 4:00 p 65.4 65.4 65.4 65.5 64.9 98 64.8 0.0 3.0 N 0.00 29.704
06/20/2003 4:30 p 64.5 64.5 64.5 64.9 64.1 98 63.9 0.0 3.0 N 0.00 29.708
06/20/2003 5:00 p 63.4 63.4 63.4 64.1 62.8 98 62.8 0.0 3.0 N 0.01 29.707
06/20/2003 5:30 p 62.5 62.5 62.5 62.8 62.4 98 61.9 0.0 4.0 N 0.00 29.709
06/20/2003 6:00 p 62.4 62.4 62.4 62.5 62.3 98 61.8 0.0 3.0 N 0.00 29.706
06/20/2003 6:30 p 62.4 62.4 62.4 62.5 62.3 98 61.8 0.0 4.0 N 0.00 29.711
06/20/2003 7:00 p 62.0 62.0 62.0 62.3 61.6 98 61.4 0.0 2.0 N 0.00 29.721
06/20/2003 7:30 p 61.5 61.5 61.5 61.6 61.4 98 60.9 1.0 3.0 N 0.00 29.716
06/20/2003 8:00 p 60.5 60.5 60.5 61.4 60.1 98 59.9 0.0 4.0 N 0.01 29.712
06/20/2003 8:30 p 59.9 59.9 59.9 60.1 59.7 98 59.3 0.0 3.0 N 0.00 29.703
06/20/2003 9:00 p 59.8 59.8 59.8 59.8 59.7 98 59.2 0.0 3.0 N 0.01 29.711
06/20/2003 9:30 p 59.7 59.7 59.7 59.8 59.7 98 59.1 0.0 3.0 N 0.02 29.717
06/20/2003 10:00 p 59.7 59.7 59.7 59.8 59.6 98 59.1 0.0 3.0 N 0.07 29.717
06/20/2003 10:30 p 59.6 59.6 59.6 59.7 59.6 99 59.3 0.0 3.0 NNE 0.07 29.720
06/20/2003 11:00 p 59.6 59.6 59.6 59.6 59.5 99 59.3 0.0 3.0 NNE 0.00 29.729
06/20/2003 11:30 p 59.7 59.7 59.7 59.8 59.6 99 59.4 0.0 2.0 NNE 0.00 29.741
06/21/2003 12:00 a 59.6 59.6 59.6 59.8 59.4 99 59.3 0.0 1.0 NNE 0.01 29.739
06/21/2003 12:30 a 59.4 59.4 59.4 59.5 59.3 99 59.1 0.0 1.0 NNE 0.01 29.741
06/21/2003 1:00 a 59.4 59.4 59.4 59.4 59.3 99 59.1 0.0 1.0 NNE 0.01 29.733
06/21/2003 1:30 a 59.3 59.3 59.3 59.4 59.2 99 59.0 0.0 1.0 NNE 0.00 29.729
06/21/2003 2:00 a 59.2 59.2 59.2 59.3 59.2 98 58.6 0.0 0.0 --- 0.00 29.729
06/21/2003 2:30 a 59.0 59.0 59.0 59.2 58.8 99 58.7 0.0 1.0 NNE 0.01 29.731
06/21/2003 3:00 a 58.8 58.8 58.8 58.8 58.7 98 58.2 0.0 2.0 NNE 0.00 29.722
06/21/2003 3:30 a 58.7 58.7 58.7 58.7 58.6 99 58.4 0.0 1.0 NNE 0.00 29.716
06/21/2003 4:00 a 58.6 58.6 58.6 58.7 58.6 98 58.0 0.0 1.0 --- 0.01 29.709
06/21/2003 4:30 a 58.6 58.6 58.6 58.6 58.5 98 58.0 0.0 1.0 NNE 0.00 29.700
06/21/2003 5:00 a 58.3 58.3 58.3 58.5 58.1 99 58.0 0.0 1.0 NNE 0.00 29.695
06/21/2003 5:30 a 58.1 58.1 58.1 58.1 58.0 99 57.8 0.0 1.0 --- 0.00 29.701
06/21/2003 6:00 a 58.2 58.2 58.2 58.3 58.1 98 57.6 0.0 0.0 --- 0.00 29.707
06/21/2003 6:30 a 58.5 58.5 58.5 58.7 58.3 98 57.9 0.0 0.0 --- 0.00 29.710
06/21/2003 7:00 a 59.0 59.0 59.0 59.3 58.7 98 58.4 0.0 0.0 --- 0.00 29.716
06/21/2003 7:30 a 59.5 59.5 59.5 59.7 59.3 98 58.9 0.0 0.0 --- 0.00 29.719
06/21/2003 8:00 a 59.7 59.7 59.7 59.9 59.6 99 59.4 0.0 0.0 --- 0.00 29.716
06/21/2003 8:30 a 59.7 59.7 59.7 59.8 59.6 98 59.1 0.0 0.0 --- 0.00 29.714
06/21/2003 9:00 a 59.5 59.5 59.5 59.6 59.3 99 59.2 0.0 1.0 --- 0.00 29.710
06/21/2003 9:30 a 59.2 59.2 59.2 59.3 59.1 98 58.6 0.0 1.0 NNE 0.00 29.706
06/21/2003 10:00 a 59.3 59.3 59.3 59.4 59.1 98 58.7 0.0 0.0 --- 0.00 29.709
06/21/2003 10:30 a 59.5 59.5 59.5 59.6 59.3 99 59.2 0.0 1.0 --- 0.00 29.708
06/21/2003 11:00 a 59.7 59.7 59.7 59.9 59.6 98 59.1 0.0 2.0 ESE 0.00 29.703
06/21/2003 11:30 a 59.9 59.9 59.9 60.1 59.5 98 59.3 0.0 2.0 ESE 0.00 29.707
06/21/2003 12:00 p 59.7 59.7 59.7 60.2 59.5 99 59.4 0.0 0.0 --- 0.00 29.698
06/21/2003 12:30 p 60.1 60.1 60.1 60.4 59.7 99 59.8 0.0 2.0 ESE 0.00 29.708
06/21/2003 1:00 p 59.8 59.8 59.8 60.0 59.6 98 59.2 0.0 1.0 --- 0.00 29.699
06/21/2003 1:30 p 59.8 59.8 59.8 59.9 59.7 98 59.2 0.0 1.0 ESE 0.00 29.701
06/21/2003 2:00 p 59.6 59.6 59.6 59.8 59.4 99 59.3 0.0 1.0 ESE 0.01 29.696
06/21/2003 2:30 p 60.1 60.1 60.1 60.3 59.8 98 59.5 0.0 0.0 --- 0.01 29.688
06/21/2003 3:00 p 59.8 59.8 59.8 60.3 59.4 100 59.8 0.0 2.0 ESE 0.06 29.685
06/21/2003 3:30 p 59.6 59.6 59.6 59.8 59.4 100 59.6 0.0 1.0 --- 0.12 29.680
06/21/2003 4:00 p 59.4 59.4 59.4 59.6 59.0 100 59.4 0.0 2.0 ESE 0.06 29.671
06/21/2003 4:30 p 59.0 59.0 59.0 59.1 58.9 100 59.0 0.0 1.0 ESE 0.07 29.677
06/21/2003 5:00 p 58.9 58.9 58.9 59.0 58.8 100 58.9 0.0 1.0 ESE 0.05 29.640
06/21/2003 5:30 p 58.8 58.8 58.8 58.9 58.8 100 58.8 0.0 2.0 ESE 0.03 29.635
06/21/2003 6:00 p 58.9 58.9 58.9 59.0 58.9 100 58.9 0.0 4.0 SE 0.04 29.626
06/21/2003 6:30 p 59.1 59.1 59.1 59.1 59.0 100 59.1 0.0 3.0 SSE 0.04 29.620
06/21/2003 7:00 p 59.3 59.3 59.3 59.4 59.1 100 59.3 0.0 3.0 SSE 0.03 29.644
06/21/2003 7:30 p 59.2 59.2 59.2 59.3 59.1 100 59.2 0.0 4.0 SSE 0.00 29.556
06/21/2003 8:00 p 58.7 58.7 58.7 59.2 58.5 100 58.7 1.0 7.0 SSE 0.00 29.589
06/21/2003 8:30 p 58.3 58.3 58.3 58.5 57.8 100 58.3 0.0 4.0 SSE 0.00 29.595
06/21/2003 9:00 p 57.8 57.8 57.8 58.0 57.6 100 57.8 0.0 0.0 --- 0.00 29.631
06/21/2003 9:30 p 58.1 58.1 58.1 58.4 57.9 100 58.1 0.0 0.0 --- 0.00 29.653
06/21/2003 10:00 p 58.4 58.4 58.4 58.5 58.4 100 58.4 0.0 0.0 --- 0.00 29.674
06/21/2003 10:30 p 58.6 58.6 58.6 58.7 58.2 100 58.6 0.0 1.0 SSE 0.00 29.663
06/21/2003 11:00 p 58.2 58.2 58.2 58.4 58.2 100 58.2 0.0 0.0 --- 0.00 29.656
06/21/2003 11:30 p 58.4 58.4 58.4 58.5 58.3 100 58.4 0.0 1.0 SSE 0.00 29.661
06/22/2003 12:00 a 58.3 58.3 58.3 58.4 58.1 100 58.3 0.0 0.0 --- 0.00 29.655
06/22/2003 12:30 a 58.0 58.0 58.0 58.1 57.9 100 58.0 0.0 0.0 --- 0.00 29.646
06/22/2003 1:00 a 57.8 57.8 57.8 57.9 57.8 100 57.8 0.0 1.0 SSE 0.00 29.650
06/22/2003 1:30 a 58.0 58.0 58.0 58.0 57.9 100 58.0 0.0 1.0 SSE 0.00 29.652
06/22/2003 2:00 a 57.9 57.9 57.9 58.0 57.8 100 57.9 0.0 0.0 --- 0.00 29.644
06/22/2003 2:30 a 57.8 57.8 57.8 57.8 57.8 100 57.8 0.0 0.0 --- 0.00 29.640
06/22/2003 3:00 a 57.7 57.7 57.7 57.8 57.4 100 57.7 0.0 0.0 --- 0.00 29.633
06/22/2003 3:30 a 56.7 56.7 56.7 57.4 56.0 100 56.7 0.0 0.0 --- 0.00 29.629
06/22/2003 4:00 a 55.7 55.7 55.7 56.0 55.4 100 55.7 0.0 0.0 --- 0.00 29.622
06/22/2003 4:30 a 55.3 55.3 55.3 55.4 54.9 100 55.3 0.0 0.0 --- 0.00 29.616
06/22/2003 5:00 a 54.8 54.8 54.8 54.9 54.6 100 54.8 0.0 0.0 --- 0.00 29.620
06/22/2003 5:30 a 54.9 54.9 54.9 55.1 54.6 100 54.9 0.0 0.0 --- 0.00 29.622
06/22/2003 6:00 a 55.1 55.1 55.1 55.7 54.7 100 55.1 0.0 0.0 --- 0.00 29.623
06/22/2003 6:30 a 56.2 56.2 56.2 56.7 55.7 100 56.2 0.0 0.0 --- 0.00 29.639
06/22/2003 7:00 a 56.9 56.9 56.9 57.1 56.7 100 56.9 0.0 0.0 --- 0.00 29.642
06/22/2003 7:30 a 57.4 57.4 57.4 57.8 57.1 100 57.4 0.0 0.0 --- 0.00 29.642
06/22/2003 8:00 a 58.4 58.4 58.4 58.9 57.8 100 58.4 0.0 3.0 SSE 0.00 29.649
06/22/2003 8:30 a 59.7 59.7 59.7 60.1 58.9 100 59.7 0.0 2.0 SSE 0.00 29.650
06/22/2003 9:00 a 60.1 60.1 60.1 60.8 59.8 100 60.1 0.0 4.0 SSE 0.00 29.653
06/22/2003 9:30 a 60.4 60.4 60.4 60.9 59.9 100 60.4 0.0 3.0 SSE 0.00 29.653
06/22/2003 10:00 a 60.2 60.2 60.2 60.3 59.9 100 60.2 0.0 2.0 SSE 0.00 29.653
06/22/2003 10:30 a 60.8 60.8 60.8 61.3 60.2 100 60.8 0.0 3.0 SSE 0.00 29.657
06/22/2003 11:00 a 61.6 61.6 61.6 62.4 61.1 100 61.6 0.0 2.0 SSE 0.00 29.650
06/22/2003 11:30 a 62.3 62.3 62.3 62.8 62.1 100 62.3 0.0 3.0 SSE 0.00 29.640
06/22/2003 12:00 p 66.0 66.0 66.0 69.9 62.8 100 66.0 0.0 3.0 SSE 0.00 29.630
06/22/2003 12:30 p 72.0 68.7 68.7 69.8 68.2 100 68.7 0.0 4.0 SSE 0.00 29.619
06/22/2003 1:00 p 71.0 68.5 68.5 69.0 67.6 90 65.5 0.0 3.0 SSE 0.00 29.622
06/22/2003 1:30 p 67.7 67.7 67.7 68.5 67.2 88 64.0 0.0 5.0 SSE 0.00 29.623
06/22/2003 2:00 p 66.2 66.2 66.2 67.7 65.4 87 62.2 0.0 2.0 SSE 0.00 29.615
06/22/2003 2:30 p 66.1 66.1 66.1 66.8 65.4 85 61.5 0.0 2.0 SSE 0.00 29.615
06/22/2003 3:00 p 66.4 66.4 66.4 67.5 65.9 82 60.7 0.0 1.0 --- 0.00 29.615
06/22/2003 3:30 p 70.4 68.5 68.5 68.9 67.5 77 61.0 0.0 2.0 SSE 0.00 29.619
06/22/2003 4:00 p 69.2 68.0 68.0 68.4 67.7 76 60.2 0.0 3.0 SSE 0.00 29.612
06/22/2003 4:30 p 66.9 66.9 66.9 68.0 65.8 84 61.9 0.0 2.0 SSE 0.00 29.606
06/22/2003 5:00 p 65.3 65.3 65.3 65.8 65.1 83 60.0 0.0 1.0 --- 0.00 29.606
06/22/2003 5:30 p 65.4 65.4 65.4 65.6 65.2 85 60.8 0.0 1.0 SSE 0.00 29.602
06/22/2003 6:00 p 64.6 64.6 64.6 65.2 63.5 89 61.3 0.0 1.0 --- 0.00 29.605
06/22/2003 6:30 p 63.1 63.1 63.1 63.5 62.3 95 61.6 0.0 2.0 SSE 0.00 29.621
06/22/2003 7:00 p 62.0 62.0 62.0 62.3 61.8 96 60.9 0.0 1.0 SSE 0.00 29.622
06/22/2003 7:30 p 61.6 61.6 61.6 61.8 61.4 97 60.7 0.0 1.0 --- 0.00 29.625
06/22/2003 8:00 p 61.4 61.4 61.4 61.5 61.3 97 60.5 0.0 0.0 --- 0.00 29.622
06/22/2003 8:30 p 61.4 61.4 61.4 61.5 61.1 97 60.5 0.0 0.0 --- 0.00 29.625
06/22/2003 9:00 p 60.7 60.7 60.7 61.1 60.3 97 59.8 0.0 0.0 --- 0.00 29.631
06/22/2003 9:30 p 60.4 60.4 60.4 60.5 60.3 98 59.8 0.0 0.0 --- 0.00 29.634
06/22/2003 10:00 p 60.4 60.4 60.4 60.5 60.2 97 59.5 0.0 0.0 --- 0.00 29.633
06/22/2003 10:30 p 60.3 60.3 60.3 60.4 60.2 98 59.7 0.0 0.0 --- 0.00 29.634
06/22/2003 11:00 p 59.8 59.8 59.8 60.4 59.3 98 59.2 0.0 0.0 --- 0.00 29.634
06/22/2003 11:30 p 58.9 58.9 58.9 59.3 58.2 97 58.1 0.0 0.0 --- 0.00 29.630
06/23/2003 12:00 a 57.9 57.9 57.9 58.3 57.3 98 57.3 0.0 0.0 --- 0.00 29.635
06/23/2003 12:30 a 57.0 57.0 57.0 57.3 56.8 97 56.2 0.0 0.0 --- 0.00 29.637
06/23/2003 1:00 a 56.9 56.9 56.9 57.0 56.6 98 56.3 0.0 0.0 --- 0.00 29.641
06/23/2003 1:30 a 56.3